<?xml version="1.0" encoding="UTF-8" standalone="no" ?>
<gpx xmlns="http://www.topografix.com/GPX/1/1" xmlns:xsi="http://www.w3.org/2001/XMLSchema-instance" xsi:schemaLocation="http://www.topografix.com/GPX/1/1 http://www.topografix.com/GPX/1/1/gpx.xsd" version="1.1" creator="VisuGPX - https://www.visugpx.com">
  <metadata>
    <name>Coupe régionale XC les Fumades - Cadets</name>
    <desc><![CDATA[Coupe régionale XC les Fumades - Cadets]]></desc>
  </metadata>
  <trk>
    <name><![CDATA[Cadet on GPSies.com]]></name>
    <trkseg>
      <trkpt lat="44.18781" lon="4.22988">
        <ele>161</ele>
        <time>2010-01-01T00:00:00Z</time>
      </trkpt>
      <trkpt lat="44.18796" lon="4.23009">
        <ele>161</ele>
        <time>2010-01-01T00:00:08Z</time>
      </trkpt>
      <trkpt lat="44.18804" lon="4.2303">
        <ele>161</ele>
        <time>2010-01-01T00:00:15Z</time>
      </trkpt>
      <trkpt lat="44.18815" lon="4.23045">
        <ele>161</ele>
        <time>2010-01-01T00:00:21Z</time>
      </trkpt>
      <trkpt lat="44.18821" lon="4.23032">
        <ele>162</ele>
        <time>2010-01-01T00:00:25Z</time>
      </trkpt>
      <trkpt lat="44.18819" lon="4.23017">
        <ele>164</ele>
        <time>2010-01-01T00:00:30Z</time>
      </trkpt>
      <trkpt lat="44.18819" lon="4.23001">
        <ele>166</ele>
        <time>2010-01-01T00:00:34Z</time>
      </trkpt>
      <trkpt lat="44.18817" lon="4.22984">
        <ele>167</ele>
        <time>2010-01-01T00:00:39Z</time>
      </trkpt>
      <trkpt lat="44.18818" lon="4.22966">
        <ele>168</ele>
        <time>2010-01-01T00:00:45Z</time>
      </trkpt>
      <trkpt lat="44.1882" lon="4.22943">
        <ele>170</ele>
        <time>2010-01-01T00:00:51Z</time>
      </trkpt>
      <trkpt lat="44.18822" lon="4.22922">
        <ele>171</ele>
        <time>2010-01-01T00:00:57Z</time>
      </trkpt>
      <trkpt lat="44.18823" lon="4.22901">
        <ele>172</ele>
        <time>2010-01-01T00:01:03Z</time>
      </trkpt>
      <trkpt lat="44.18821" lon="4.2288">
        <ele>173</ele>
        <time>2010-01-01T00:01:09Z</time>
      </trkpt>
      <trkpt lat="44.18817" lon="4.22861">
        <ele>174</ele>
        <time>2010-01-01T00:01:15Z</time>
      </trkpt>
      <trkpt lat="44.18814" lon="4.22842">
        <ele>175</ele>
        <time>2010-01-01T00:01:21Z</time>
      </trkpt>
      <trkpt lat="44.18809" lon="4.22823">
        <ele>175</ele>
        <time>2010-01-01T00:01:27Z</time>
      </trkpt>
      <trkpt lat="44.18805" lon="4.22806">
        <ele>176</ele>
        <time>2010-01-01T00:01:32Z</time>
      </trkpt>
      <trkpt lat="44.18801" lon="4.22791">
        <ele>178</ele>
        <time>2010-01-01T00:01:36Z</time>
      </trkpt>
      <trkpt lat="44.18796" lon="4.22774">
        <ele>179</ele>
        <time>2010-01-01T00:01:41Z</time>
      </trkpt>
      <trkpt lat="44.18791" lon="4.22755">
        <ele>181</ele>
        <time>2010-01-01T00:01:47Z</time>
      </trkpt>
      <trkpt lat="44.18785" lon="4.22735">
        <ele>182</ele>
        <time>2010-01-01T00:01:53Z</time>
      </trkpt>
      <trkpt lat="44.18777" lon="4.22715">
        <ele>184</ele>
        <time>2010-01-01T00:02:00Z</time>
      </trkpt>
      <trkpt lat="44.18768" lon="4.22692">
        <ele>185</ele>
        <time>2010-01-01T00:02:07Z</time>
      </trkpt>
      <trkpt lat="44.18757" lon="4.22666">
        <ele>185</ele>
        <time>2010-01-01T00:02:16Z</time>
      </trkpt>
      <trkpt lat="44.18751" lon="4.22638">
        <ele>185</ele>
        <time>2010-01-01T00:02:25Z</time>
      </trkpt>
      <trkpt lat="44.18747" lon="4.22615">
        <ele>186</ele>
        <time>2010-01-01T00:02:32Z</time>
      </trkpt>
      <trkpt lat="44.18743" lon="4.22591">
        <ele>187</ele>
        <time>2010-01-01T00:02:39Z</time>
      </trkpt>
      <trkpt lat="44.18741" lon="4.22568">
        <ele>189</ele>
        <time>2010-01-01T00:02:45Z</time>
      </trkpt>
      <trkpt lat="44.18732" lon="4.22548">
        <ele>190</ele>
        <time>2010-01-01T00:02:52Z</time>
      </trkpt>
      <trkpt lat="44.1871" lon="4.22536">
        <ele>191</ele>
        <time>2010-01-01T00:03:01Z</time>
      </trkpt>
      <trkpt lat="44.18688" lon="4.2252">
        <ele>190</ele>
        <time>2010-01-01T00:03:11Z</time>
      </trkpt>
      <trkpt lat="44.1867" lon="4.225">
        <ele>190</ele>
        <time>2010-01-01T00:03:20Z</time>
      </trkpt>
      <trkpt lat="44.18654" lon="4.22487">
        <ele>190</ele>
        <time>2010-01-01T00:03:28Z</time>
      </trkpt>
      <trkpt lat="44.1864" lon="4.22478">
        <ele>191</ele>
        <time>2010-01-01T00:03:34Z</time>
      </trkpt>
      <trkpt lat="44.18626" lon="4.2247">
        <ele>192</ele>
        <time>2010-01-01T00:03:40Z</time>
      </trkpt>
      <trkpt lat="44.18613" lon="4.22462">
        <ele>193</ele>
        <time>2010-01-01T00:03:46Z</time>
      </trkpt>
      <trkpt lat="44.18599" lon="4.22456">
        <ele>194</ele>
        <time>2010-01-01T00:03:52Z</time>
      </trkpt>
      <trkpt lat="44.18586" lon="4.22453">
        <ele>195</ele>
        <time>2010-01-01T00:03:57Z</time>
      </trkpt>
      <trkpt lat="44.18574" lon="4.22441">
        <ele>197</ele>
        <time>2010-01-01T00:04:03Z</time>
      </trkpt>
      <trkpt lat="44.18561" lon="4.22426">
        <ele>197</ele>
        <time>2010-01-01T00:04:10Z</time>
      </trkpt>
      <trkpt lat="44.18549" lon="4.22415">
        <ele>198</ele>
        <time>2010-01-01T00:04:16Z</time>
      </trkpt>
      <trkpt lat="44.18537" lon="4.22402">
        <ele>200</ele>
        <time>2010-01-01T00:04:21Z</time>
      </trkpt>
      <trkpt lat="44.18524" lon="4.2239">
        <ele>201</ele>
        <time>2010-01-01T00:04:28Z</time>
      </trkpt>
      <trkpt lat="44.18511" lon="4.22376">
        <ele>202</ele>
        <time>2010-01-01T00:04:35Z</time>
      </trkpt>
      <trkpt lat="44.18497" lon="4.22353">
        <ele>203</ele>
        <time>2010-01-01T00:04:43Z</time>
      </trkpt>
      <trkpt lat="44.18485" lon="4.22324">
        <ele>203</ele>
        <time>2010-01-01T00:04:52Z</time>
      </trkpt>
      <trkpt lat="44.1847" lon="4.22289">
        <ele>203</ele>
        <time>2010-01-01T00:05:04Z</time>
      </trkpt>
      <trkpt lat="44.18454" lon="4.22247">
        <ele>201</ele>
        <time>2010-01-01T00:05:18Z</time>
      </trkpt>
      <trkpt lat="44.18431" lon="4.22219">
        <ele>201</ele>
        <time>2010-01-01T00:05:30Z</time>
      </trkpt>
      <trkpt lat="44.18413" lon="4.22191">
        <ele>201</ele>
        <time>2010-01-01T00:05:41Z</time>
      </trkpt>
      <trkpt lat="44.18395" lon="4.22169">
        <ele>201</ele>
        <time>2010-01-01T00:05:51Z</time>
      </trkpt>
      <trkpt lat="44.18378" lon="4.22159">
        <ele>202</ele>
        <time>2010-01-01T00:05:58Z</time>
      </trkpt>
      <trkpt lat="44.18362" lon="4.22152">
        <ele>204</ele>
        <time>2010-01-01T00:06:05Z</time>
      </trkpt>
      <trkpt lat="44.18349" lon="4.22147">
        <ele>205</ele>
        <time>2010-01-01T00:06:10Z</time>
      </trkpt>
      <trkpt lat="44.18335" lon="4.22141">
        <ele>207</ele>
        <time>2010-01-01T00:06:16Z</time>
      </trkpt>
      <trkpt lat="44.18321" lon="4.22136">
        <ele>208</ele>
        <time>2010-01-01T00:06:22Z</time>
      </trkpt>
      <trkpt lat="44.18305" lon="4.22131">
        <ele>210</ele>
        <time>2010-01-01T00:06:28Z</time>
      </trkpt>
      <trkpt lat="44.18291" lon="4.22125">
        <ele>212</ele>
        <time>2010-01-01T00:06:34Z</time>
      </trkpt>
      <trkpt lat="44.18277" lon="4.22118">
        <ele>213</ele>
        <time>2010-01-01T00:06:40Z</time>
      </trkpt>
      <trkpt lat="44.18262" lon="4.22109">
        <ele>215</ele>
        <time>2010-01-01T00:06:47Z</time>
      </trkpt>
      <trkpt lat="44.18246" lon="4.221">
        <ele>216</ele>
        <time>2010-01-01T00:06:53Z</time>
      </trkpt>
      <trkpt lat="44.18231" lon="4.2209">
        <ele>217</ele>
        <time>2010-01-01T00:07:00Z</time>
      </trkpt>
      <trkpt lat="44.18215" lon="4.2208">
        <ele>218</ele>
        <time>2010-01-01T00:07:07Z</time>
      </trkpt>
      <trkpt lat="44.182" lon="4.22068">
        <ele>218</ele>
        <time>2010-01-01T00:07:14Z</time>
      </trkpt>
      <trkpt lat="44.18185" lon="4.22057">
        <ele>219</ele>
        <time>2010-01-01T00:07:21Z</time>
      </trkpt>
      <trkpt lat="44.18169" lon="4.22047">
        <ele>219</ele>
        <time>2010-01-01T00:07:28Z</time>
      </trkpt>
      <trkpt lat="44.18152" lon="4.22034">
        <ele>220</ele>
        <time>2010-01-01T00:07:36Z</time>
      </trkpt>
      <trkpt lat="44.18137" lon="4.22022">
        <ele>220</ele>
        <time>2010-01-01T00:07:43Z</time>
      </trkpt>
      <trkpt lat="44.18123" lon="4.22027">
        <ele>221</ele>
        <time>2010-01-01T00:07:49Z</time>
      </trkpt>
      <trkpt lat="44.1811" lon="4.22038">
        <ele>222</ele>
        <time>2010-01-01T00:07:54Z</time>
      </trkpt>
      <trkpt lat="44.18098" lon="4.2205">
        <ele>224</ele>
        <time>2010-01-01T00:08:00Z</time>
      </trkpt>
      <trkpt lat="44.18083" lon="4.22055">
        <ele>225</ele>
        <time>2010-01-01T00:08:07Z</time>
      </trkpt>
      <trkpt lat="44.1807" lon="4.22037">
        <ele>225</ele>
        <time>2010-01-01T00:08:14Z</time>
      </trkpt>
      <trkpt lat="44.18058" lon="4.22016">
        <ele>226</ele>
        <time>2010-01-01T00:08:22Z</time>
      </trkpt>
      <trkpt lat="44.18048" lon="4.21999">
        <ele>226</ele>
        <time>2010-01-01T00:08:28Z</time>
      </trkpt>
      <trkpt lat="44.18034" lon="4.21981">
        <ele>226</ele>
        <time>2010-01-01T00:08:36Z</time>
      </trkpt>
      <trkpt lat="44.18021" lon="4.21954">
        <ele>226</ele>
        <time>2010-01-01T00:08:45Z</time>
      </trkpt>
      <trkpt lat="44.18014" lon="4.21922">
        <ele>226</ele>
        <time>2010-01-01T00:08:55Z</time>
      </trkpt>
      <trkpt lat="44.18004" lon="4.2189">
        <ele>226</ele>
        <time>2010-01-01T00:09:05Z</time>
      </trkpt>
      <trkpt lat="44.1799" lon="4.21854">
        <ele>223</ele>
        <time>2010-01-01T00:09:16Z</time>
      </trkpt>
      <trkpt lat="44.17969" lon="4.21816">
        <ele>221</ele>
        <time>2010-01-01T00:09:30Z</time>
      </trkpt>
      <trkpt lat="44.17947" lon="4.21777">
        <ele>219</ele>
        <time>2010-01-01T00:09:44Z</time>
      </trkpt>
      <trkpt lat="44.17929" lon="4.21744">
        <ele>217</ele>
        <time>2010-01-01T00:09:56Z</time>
      </trkpt>
      <trkpt lat="44.17916" lon="4.21719">
        <ele>217</ele>
        <time>2010-01-01T00:10:05Z</time>
      </trkpt>
      <trkpt lat="44.17903" lon="4.21695">
        <ele>216</ele>
        <time>2010-01-01T00:10:14Z</time>
      </trkpt>
      <trkpt lat="44.17886" lon="4.21669">
        <ele>216</ele>
        <time>2010-01-01T00:10:24Z</time>
      </trkpt>
      <trkpt lat="44.17869" lon="4.21651">
        <ele>216</ele>
        <time>2010-01-01T00:10:32Z</time>
      </trkpt>
      <trkpt lat="44.17858" lon="4.21639">
        <ele>216</ele>
        <time>2010-01-01T00:10:38Z</time>
      </trkpt>
      <trkpt lat="44.17849" lon="4.21624">
        <ele>218</ele>
        <time>2010-01-01T00:10:44Z</time>
      </trkpt>
      <trkpt lat="44.1784" lon="4.21611">
        <ele>219</ele>
        <time>2010-01-01T00:10:49Z</time>
      </trkpt>
      <trkpt lat="44.17827" lon="4.21603">
        <ele>220</ele>
        <time>2010-01-01T00:10:55Z</time>
      </trkpt>
      <trkpt lat="44.17816" lon="4.2159">
        <ele>222</ele>
        <time>2010-01-01T00:11:00Z</time>
      </trkpt>
      <trkpt lat="44.1781" lon="4.2157">
        <ele>223</ele>
        <time>2010-01-01T00:11:06Z</time>
      </trkpt>
      <trkpt lat="44.17822" lon="4.21555">
        <ele>223</ele>
        <time>2010-01-01T00:11:13Z</time>
      </trkpt>
      <trkpt lat="44.17836" lon="4.21542">
        <ele>224</ele>
        <time>2010-01-01T00:11:20Z</time>
      </trkpt>
      <trkpt lat="44.17848" lon="4.2153">
        <ele>225</ele>
        <time>2010-01-01T00:11:26Z</time>
      </trkpt>
      <trkpt lat="44.1786" lon="4.21517">
        <ele>226</ele>
        <time>2010-01-01T00:11:32Z</time>
      </trkpt>
      <trkpt lat="44.17874" lon="4.21504">
        <ele>227</ele>
        <time>2010-01-01T00:11:38Z</time>
      </trkpt>
      <trkpt lat="44.17891" lon="4.2149">
        <ele>227</ele>
        <time>2010-01-01T00:11:46Z</time>
      </trkpt>
      <trkpt lat="44.17907" lon="4.21476">
        <ele>227</ele>
        <time>2010-01-01T00:11:54Z</time>
      </trkpt>
      <trkpt lat="44.17925" lon="4.2147">
        <ele>227</ele>
        <time>2010-01-01T00:12:01Z</time>
      </trkpt>
      <trkpt lat="44.17939" lon="4.21455">
        <ele>227</ele>
        <time>2010-01-01T00:12:08Z</time>
      </trkpt>
      <trkpt lat="44.17953" lon="4.2144">
        <ele>225</ele>
        <time>2010-01-01T00:12:15Z</time>
      </trkpt>
      <trkpt lat="44.17971" lon="4.21444">
        <ele>223</ele>
        <time>2010-01-01T00:12:23Z</time>
      </trkpt>
      <trkpt lat="44.17986" lon="4.21442">
        <ele>222</ele>
        <time>2010-01-01T00:12:29Z</time>
      </trkpt>
      <trkpt lat="44.18" lon="4.21421">
        <ele>221</ele>
        <time>2010-01-01T00:12:37Z</time>
      </trkpt>
      <trkpt lat="44.18008" lon="4.214">
        <ele>219</ele>
        <time>2010-01-01T00:12:44Z</time>
      </trkpt>
      <trkpt lat="44.18023" lon="4.2139">
        <ele>217</ele>
        <time>2010-01-01T00:12:50Z</time>
      </trkpt>
      <trkpt lat="44.18038" lon="4.21391">
        <ele>215</ele>
        <time>2010-01-01T00:12:56Z</time>
      </trkpt>
      <trkpt lat="44.18046" lon="4.21402">
        <ele>213</ele>
        <time>2010-01-01T00:13:01Z</time>
      </trkpt>
      <trkpt lat="44.18056" lon="4.21396">
        <ele>213</ele>
        <time>2010-01-01T00:13:05Z</time>
      </trkpt>
      <trkpt lat="44.18056" lon="4.21379">
        <ele>210</ele>
        <time>2010-01-01T00:13:10Z</time>
      </trkpt>
      <trkpt lat="44.18049" lon="4.21365">
        <ele>210</ele>
        <time>2010-01-01T00:13:15Z</time>
      </trkpt>
      <trkpt lat="44.18037" lon="4.21346">
        <ele>210</ele>
        <time>2010-01-01T00:13:22Z</time>
      </trkpt>
      <trkpt lat="44.18023" lon="4.21328">
        <ele>210</ele>
        <time>2010-01-01T00:13:30Z</time>
      </trkpt>
      <trkpt lat="44.18028" lon="4.21303">
        <ele>209</ele>
        <time>2010-01-01T00:13:37Z</time>
      </trkpt>
      <trkpt lat="44.18034" lon="4.21271">
        <ele>205</ele>
        <time>2010-01-01T00:13:47Z</time>
      </trkpt>
      <trkpt lat="44.18043" lon="4.2125">
        <ele>201</ele>
        <time>2010-01-01T00:13:54Z</time>
      </trkpt>
      <trkpt lat="44.18037" lon="4.21237">
        <ele>199</ele>
        <time>2010-01-01T00:13:58Z</time>
      </trkpt>
      <trkpt lat="44.18034" lon="4.21227">
        <ele>199</ele>
        <time>2010-01-01T00:14:01Z</time>
      </trkpt>
      <trkpt lat="44.18026" lon="4.21226">
        <ele>199</ele>
        <time>2010-01-01T00:14:04Z</time>
      </trkpt>
      <trkpt lat="44.18019" lon="4.21231">
        <ele>199</ele>
        <time>2010-01-01T00:14:08Z</time>
      </trkpt>
      <trkpt lat="44.18013" lon="4.21242">
        <ele>200</ele>
        <time>2010-01-01T00:14:11Z</time>
      </trkpt>
      <trkpt lat="44.18006" lon="4.21251">
        <ele>201</ele>
        <time>2010-01-01T00:14:15Z</time>
      </trkpt>
      <trkpt lat="44.17996" lon="4.2125">
        <ele>202</ele>
        <time>2010-01-01T00:14:19Z</time>
      </trkpt>
      <trkpt lat="44.17989" lon="4.21242">
        <ele>203</ele>
        <time>2010-01-01T00:14:23Z</time>
      </trkpt>
      <trkpt lat="44.17987" lon="4.2123">
        <ele>205</ele>
        <time>2010-01-01T00:14:26Z</time>
      </trkpt>
      <trkpt lat="44.17981" lon="4.21217">
        <ele>206</ele>
        <time>2010-01-01T00:14:31Z</time>
      </trkpt>
      <trkpt lat="44.17976" lon="4.21205">
        <ele>207</ele>
        <time>2010-01-01T00:14:35Z</time>
      </trkpt>
      <trkpt lat="44.17966" lon="4.21199">
        <ele>208</ele>
        <time>2010-01-01T00:14:39Z</time>
      </trkpt>
      <trkpt lat="44.17957" lon="4.21195">
        <ele>209</ele>
        <time>2010-01-01T00:14:43Z</time>
      </trkpt>
      <trkpt lat="44.17947" lon="4.21193">
        <ele>210</ele>
        <time>2010-01-01T00:14:47Z</time>
      </trkpt>
      <trkpt lat="44.17939" lon="4.21188">
        <ele>212</ele>
        <time>2010-01-01T00:14:51Z</time>
      </trkpt>
      <trkpt lat="44.17934" lon="4.21177">
        <ele>213</ele>
        <time>2010-01-01T00:14:54Z</time>
      </trkpt>
      <trkpt lat="44.17926" lon="4.21166">
        <ele>214</ele>
        <time>2010-01-01T00:14:59Z</time>
      </trkpt>
      <trkpt lat="44.17916" lon="4.21156">
        <ele>215</ele>
        <time>2010-01-01T00:15:04Z</time>
      </trkpt>
      <trkpt lat="44.17904" lon="4.21146">
        <ele>216</ele>
        <time>2010-01-01T00:15:09Z</time>
      </trkpt>
      <trkpt lat="44.1789" lon="4.21139">
        <ele>217</ele>
        <time>2010-01-01T00:15:15Z</time>
      </trkpt>
      <trkpt lat="44.17877" lon="4.21133">
        <ele>218</ele>
        <time>2010-01-01T00:15:21Z</time>
      </trkpt>
      <trkpt lat="44.17861" lon="4.21128">
        <ele>218</ele>
        <time>2010-01-01T00:15:27Z</time>
      </trkpt>
      <trkpt lat="44.17848" lon="4.21131">
        <ele>218</ele>
        <time>2010-01-01T00:15:33Z</time>
      </trkpt>
      <trkpt lat="44.17842" lon="4.21143">
        <ele>219</ele>
        <time>2010-01-01T00:15:37Z</time>
      </trkpt>
      <trkpt lat="44.17837" lon="4.21156">
        <ele>221</ele>
        <time>2010-01-01T00:15:41Z</time>
      </trkpt>
      <trkpt lat="44.17832" lon="4.2117">
        <ele>222</ele>
        <time>2010-01-01T00:15:46Z</time>
      </trkpt>
      <trkpt lat="44.17825" lon="4.21186">
        <ele>224</ele>
        <time>2010-01-01T00:15:51Z</time>
      </trkpt>
      <trkpt lat="44.17816" lon="4.21203">
        <ele>225</ele>
        <time>2010-01-01T00:15:57Z</time>
      </trkpt>
      <trkpt lat="44.17807" lon="4.21223">
        <ele>226</ele>
        <time>2010-01-01T00:16:04Z</time>
      </trkpt>
      <trkpt lat="44.17797" lon="4.21245">
        <ele>226</ele>
        <time>2010-01-01T00:16:11Z</time>
      </trkpt>
      <trkpt lat="44.17788" lon="4.21266">
        <ele>226</ele>
        <time>2010-01-01T00:16:18Z</time>
      </trkpt>
      <trkpt lat="44.1778" lon="4.21285">
        <ele>226</ele>
        <time>2010-01-01T00:16:25Z</time>
      </trkpt>
      <trkpt lat="44.1777" lon="4.21306">
        <ele>226</ele>
        <time>2010-01-01T00:16:32Z</time>
      </trkpt>
      <trkpt lat="44.17768" lon="4.2133">
        <ele>226</ele>
        <time>2010-01-01T00:16:39Z</time>
      </trkpt>
      <trkpt lat="44.17774" lon="4.21354">
        <ele>227</ele>
        <time>2010-01-01T00:16:46Z</time>
      </trkpt>
      <trkpt lat="44.17777" lon="4.21387">
        <ele>227</ele>
        <time>2010-01-01T00:16:56Z</time>
      </trkpt>
      <trkpt lat="44.17773" lon="4.21421">
        <ele>227</ele>
        <time>2010-01-01T00:17:05Z</time>
      </trkpt>
      <trkpt lat="44.17771" lon="4.21452">
        <ele>226</ele>
        <time>2010-01-01T00:17:15Z</time>
      </trkpt>
      <trkpt lat="44.17766" lon="4.21476">
        <ele>226</ele>
        <time>2010-01-01T00:17:22Z</time>
      </trkpt>
      <trkpt lat="44.17754" lon="4.21462">
        <ele>226</ele>
        <time>2010-01-01T00:17:28Z</time>
      </trkpt>
      <trkpt lat="44.17744" lon="4.21441">
        <ele>226</ele>
        <time>2010-01-01T00:17:35Z</time>
      </trkpt>
      <trkpt lat="44.17732" lon="4.21418">
        <ele>226</ele>
        <time>2010-01-01T00:17:43Z</time>
      </trkpt>
      <trkpt lat="44.17718" lon="4.21394">
        <ele>226</ele>
        <time>2010-01-01T00:17:52Z</time>
      </trkpt>
      <trkpt lat="44.17704" lon="4.21383">
        <ele>224</ele>
        <time>2010-01-01T00:17:59Z</time>
      </trkpt>
      <trkpt lat="44.17695" lon="4.21389">
        <ele>224</ele>
        <time>2010-01-01T00:18:03Z</time>
      </trkpt>
      <trkpt lat="44.17687" lon="4.21393">
        <ele>224</ele>
        <time>2010-01-01T00:18:06Z</time>
      </trkpt>
      <trkpt lat="44.17671" lon="4.21404">
        <ele>224</ele>
        <time>2010-01-01T00:18:13Z</time>
      </trkpt>
      <trkpt lat="44.17658" lon="4.21424">
        <ele>224</ele>
        <time>2010-01-01T00:18:21Z</time>
      </trkpt>
      <trkpt lat="44.17646" lon="4.21443">
        <ele>224</ele>
        <time>2010-01-01T00:18:28Z</time>
      </trkpt>
      <trkpt lat="44.17639" lon="4.21462">
        <ele>224</ele>
        <time>2010-01-01T00:18:34Z</time>
      </trkpt>
      <trkpt lat="44.17638" lon="4.21476">
        <ele>224</ele>
        <time>2010-01-01T00:18:38Z</time>
      </trkpt>
      <trkpt lat="44.17638" lon="4.21496">
        <ele>224</ele>
        <time>2010-01-01T00:18:44Z</time>
      </trkpt>
      <trkpt lat="44.17651" lon="4.21512">
        <ele>225</ele>
        <time>2010-01-01T00:18:51Z</time>
      </trkpt>
      <trkpt lat="44.17664" lon="4.21525">
        <ele>226</ele>
        <time>2010-01-01T00:18:57Z</time>
      </trkpt>
      <trkpt lat="44.17674" lon="4.21532">
        <ele>227</ele>
        <time>2010-01-01T00:19:02Z</time>
      </trkpt>
      <trkpt lat="44.17681" lon="4.21534">
        <ele>229</ele>
        <time>2010-01-01T00:19:05Z</time>
      </trkpt>
      <trkpt lat="44.17692" lon="4.21543">
        <ele>230</ele>
        <time>2010-01-01T00:19:10Z</time>
      </trkpt>
      <trkpt lat="44.17701" lon="4.21559">
        <ele>231</ele>
        <time>2010-01-01T00:19:15Z</time>
      </trkpt>
      <trkpt lat="44.1771" lon="4.21575">
        <ele>232</ele>
        <time>2010-01-01T00:19:21Z</time>
      </trkpt>
      <trkpt lat="44.17713" lon="4.21591">
        <ele>232</ele>
        <time>2010-01-01T00:19:26Z</time>
      </trkpt>
      <trkpt lat="44.17721" lon="4.2161">
        <ele>232</ele>
        <time>2010-01-01T00:19:33Z</time>
      </trkpt>
      <trkpt lat="44.17738" lon="4.21627">
        <ele>232</ele>
        <time>2010-01-01T00:19:41Z</time>
      </trkpt>
      <trkpt lat="44.17748" lon="4.21655">
        <ele>230</ele>
        <time>2010-01-01T00:19:50Z</time>
      </trkpt>
      <trkpt lat="44.17755" lon="4.21683">
        <ele>227</ele>
        <time>2010-01-01T00:19:58Z</time>
      </trkpt>
      <trkpt lat="44.17773" lon="4.21703">
        <ele>227</ele>
        <time>2010-01-01T00:20:07Z</time>
      </trkpt>
      <trkpt lat="44.17789" lon="4.21721">
        <ele>225</ele>
        <time>2010-01-01T00:20:16Z</time>
      </trkpt>
      <trkpt lat="44.17802" lon="4.21729">
        <ele>224</ele>
        <time>2010-01-01T00:20:21Z</time>
      </trkpt>
      <trkpt lat="44.17813" lon="4.21735">
        <ele>223</ele>
        <time>2010-01-01T00:20:26Z</time>
      </trkpt>
      <trkpt lat="44.17828" lon="4.21744">
        <ele>223</ele>
        <time>2010-01-01T00:20:33Z</time>
      </trkpt>
      <trkpt lat="44.17843" lon="4.2176">
        <ele>223</ele>
        <time>2010-01-01T00:20:40Z</time>
      </trkpt>
      <trkpt lat="44.17856" lon="4.21777">
        <ele>223</ele>
        <time>2010-01-01T00:20:47Z</time>
      </trkpt>
      <trkpt lat="44.17867" lon="4.21798">
        <ele>224</ele>
        <time>2010-01-01T00:20:55Z</time>
      </trkpt>
      <trkpt lat="44.17867" lon="4.21811">
        <ele>224</ele>
        <time>2010-01-01T00:20:59Z</time>
      </trkpt>
      <trkpt lat="44.17873" lon="4.21826">
        <ele>224</ele>
        <time>2010-01-01T00:21:03Z</time>
      </trkpt>
      <trkpt lat="44.17884" lon="4.2183">
        <ele>222</ele>
        <time>2010-01-01T00:21:08Z</time>
      </trkpt>
      <trkpt lat="44.17897" lon="4.21848">
        <ele>222</ele>
        <time>2010-01-01T00:21:15Z</time>
      </trkpt>
      <trkpt lat="44.1792" lon="4.21868">
        <ele>220</ele>
        <time>2010-01-01T00:21:26Z</time>
      </trkpt>
      <trkpt lat="44.17933" lon="4.21901">
        <ele>217</ele>
        <time>2010-01-01T00:21:37Z</time>
      </trkpt>
      <trkpt lat="44.17934" lon="4.21926">
        <ele>217</ele>
        <time>2010-01-01T00:21:44Z</time>
      </trkpt>
      <trkpt lat="44.17933" lon="4.21946">
        <ele>217</ele>
        <time>2010-01-01T00:21:50Z</time>
      </trkpt>
      <trkpt lat="44.17936" lon="4.21966">
        <ele>218</ele>
        <time>2010-01-01T00:21:56Z</time>
      </trkpt>
      <trkpt lat="44.17943" lon="4.21985">
        <ele>220</ele>
        <time>2010-01-01T00:22:02Z</time>
      </trkpt>
      <trkpt lat="44.17954" lon="4.22002">
        <ele>221</ele>
        <time>2010-01-01T00:22:09Z</time>
      </trkpt>
      <trkpt lat="44.17961" lon="4.22016">
        <ele>221</ele>
        <time>2010-01-01T00:22:14Z</time>
      </trkpt>
      <trkpt lat="44.17964" lon="4.22031">
        <ele>221</ele>
        <time>2010-01-01T00:22:18Z</time>
      </trkpt>
      <trkpt lat="44.17976" lon="4.22044">
        <ele>221</ele>
        <time>2010-01-01T00:22:24Z</time>
      </trkpt>
      <trkpt lat="44.17982" lon="4.22057">
        <ele>221</ele>
        <time>2010-01-01T00:22:29Z</time>
      </trkpt>
      <trkpt lat="44.17981" lon="4.22069">
        <ele>220</ele>
        <time>2010-01-01T00:22:32Z</time>
      </trkpt>
      <trkpt lat="44.17981" lon="4.22069">
        <ele>218</ele>
        <time>2010-01-01T00:22:32Z</time>
      </trkpt>
      <trkpt lat="44.17981" lon="4.22073">
        <ele>218</ele>
        <time>2010-01-01T00:22:33Z</time>
      </trkpt>
      <trkpt lat="44.17981" lon="4.2208">
        <ele>215</ele>
        <time>2010-01-01T00:22:35Z</time>
      </trkpt>
      <trkpt lat="44.17985" lon="4.22088">
        <ele>215</ele>
        <time>2010-01-01T00:22:38Z</time>
      </trkpt>
      <trkpt lat="44.17991" lon="4.22091">
        <ele>215</ele>
        <time>2010-01-01T00:22:41Z</time>
      </trkpt>
      <trkpt lat="44.18001" lon="4.22092">
        <ele>214</ele>
        <time>2010-01-01T00:22:45Z</time>
      </trkpt>
      <trkpt lat="44.18002" lon="4.22092">
        <ele>214</ele>
        <time>2010-01-01T00:22:45Z</time>
      </trkpt>
      <trkpt lat="44.1801" lon="4.22105">
        <ele>214</ele>
        <time>2010-01-01T00:22:50Z</time>
      </trkpt>
      <trkpt lat="44.18014" lon="4.22116">
        <ele>215</ele>
        <time>2010-01-01T00:22:54Z</time>
      </trkpt>
      <trkpt lat="44.18019" lon="4.22128">
        <ele>217</ele>
        <time>2010-01-01T00:22:58Z</time>
      </trkpt>
      <trkpt lat="44.18026" lon="4.2214">
        <ele>218</ele>
        <time>2010-01-01T00:23:02Z</time>
      </trkpt>
      <trkpt lat="44.18033" lon="4.22152">
        <ele>220</ele>
        <time>2010-01-01T00:23:06Z</time>
      </trkpt>
      <trkpt lat="44.18041" lon="4.22166">
        <ele>221</ele>
        <time>2010-01-01T00:23:12Z</time>
      </trkpt>
      <trkpt lat="44.18049" lon="4.22183">
        <ele>221</ele>
        <time>2010-01-01T00:23:17Z</time>
      </trkpt>
      <trkpt lat="44.18062" lon="4.22196">
        <ele>221</ele>
        <time>2010-01-01T00:23:24Z</time>
      </trkpt>
      <trkpt lat="44.18075" lon="4.22213">
        <ele>222</ele>
        <time>2010-01-01T00:23:31Z</time>
      </trkpt>
      <trkpt lat="44.18086" lon="4.2223">
        <ele>222</ele>
        <time>2010-01-01T00:23:37Z</time>
      </trkpt>
      <trkpt lat="44.181" lon="4.22256">
        <ele>222</ele>
        <time>2010-01-01T00:23:47Z</time>
      </trkpt>
      <trkpt lat="44.18118" lon="4.22268">
        <ele>218</ele>
        <time>2010-01-01T00:23:55Z</time>
      </trkpt>
      <trkpt lat="44.18137" lon="4.22291">
        <ele>216</ele>
        <time>2010-01-01T00:24:05Z</time>
      </trkpt>
      <trkpt lat="44.18161" lon="4.22324">
        <ele>212</ele>
        <time>2010-01-01T00:24:18Z</time>
      </trkpt>
      <trkpt lat="44.18183" lon="4.22365">
        <ele>207</ele>
        <time>2010-01-01T00:24:33Z</time>
      </trkpt>
      <trkpt lat="44.18193" lon="4.22397">
        <ele>200</ele>
        <time>2010-01-01T00:24:43Z</time>
      </trkpt>
      <trkpt lat="44.18183" lon="4.22419">
        <ele>195</ele>
        <time>2010-01-01T00:24:51Z</time>
      </trkpt>
      <trkpt lat="44.18161" lon="4.2243">
        <ele>192</ele>
        <time>2010-01-01T00:25:00Z</time>
      </trkpt>
      <trkpt lat="44.18139" lon="4.22442">
        <ele>188</ele>
        <time>2010-01-01T00:25:10Z</time>
      </trkpt>
      <trkpt lat="44.18121" lon="4.22458">
        <ele>183</ele>
        <time>2010-01-01T00:25:18Z</time>
      </trkpt>
      <trkpt lat="44.18096" lon="4.22457">
        <ele>179</ele>
        <time>2010-01-01T00:25:28Z</time>
      </trkpt>
      <trkpt lat="44.18078" lon="4.22446">
        <ele>174</ele>
        <time>2010-01-01T00:25:36Z</time>
      </trkpt>
      <trkpt lat="44.18068" lon="4.22456">
        <ele>171</ele>
        <time>2010-01-01T00:25:41Z</time>
      </trkpt>
      <trkpt lat="44.18058" lon="4.22471">
        <ele>168</ele>
        <time>2010-01-01T00:25:47Z</time>
      </trkpt>
      <trkpt lat="44.18041" lon="4.22495">
        <ele>164</ele>
        <time>2010-01-01T00:25:56Z</time>
      </trkpt>
      <trkpt lat="44.1802" lon="4.22527">
        <ele>163</ele>
        <time>2010-01-01T00:26:09Z</time>
      </trkpt>
      <trkpt lat="44.18" lon="4.2256">
        <ele>161</ele>
        <time>2010-01-01T00:26:21Z</time>
      </trkpt>
      <trkpt lat="44.1798" lon="4.22593">
        <ele>160</ele>
        <time>2010-01-01T00:26:34Z</time>
      </trkpt>
      <trkpt lat="44.17962" lon="4.22622">
        <ele>160</ele>
        <time>2010-01-01T00:26:45Z</time>
      </trkpt>
      <trkpt lat="44.17945" lon="4.2265">
        <ele>160</ele>
        <time>2010-01-01T00:26:55Z</time>
      </trkpt>
      <trkpt lat="44.17927" lon="4.22681">
        <ele>159</ele>
        <time>2010-01-01T00:27:07Z</time>
      </trkpt>
      <trkpt lat="44.17911" lon="4.2271">
        <ele>159</ele>
        <time>2010-01-01T00:27:17Z</time>
      </trkpt>
      <trkpt lat="44.17894" lon="4.22739">
        <ele>158</ele>
        <time>2010-01-01T00:27:28Z</time>
      </trkpt>
      <trkpt lat="44.17876" lon="4.22765">
        <ele>158</ele>
        <time>2010-01-01T00:27:38Z</time>
      </trkpt>
      <trkpt lat="44.1786" lon="4.22788">
        <ele>157</ele>
        <time>2010-01-01T00:27:47Z</time>
      </trkpt>
      <trkpt lat="44.17847" lon="4.22795">
        <ele>157</ele>
        <time>2010-01-01T00:27:53Z</time>
      </trkpt>
      <trkpt lat="44.17844" lon="4.2282">
        <ele>157</ele>
        <time>2010-01-01T00:28:00Z</time>
      </trkpt>
      <trkpt lat="44.17841" lon="4.22847">
        <ele>159</ele>
        <time>2010-01-01T00:28:08Z</time>
      </trkpt>
      <trkpt lat="44.17839" lon="4.22879">
        <ele>160</ele>
        <time>2010-01-01T00:28:17Z</time>
      </trkpt>
      <trkpt lat="44.17838" lon="4.22913">
        <ele>160</ele>
        <time>2010-01-01T00:28:27Z</time>
      </trkpt>
      <trkpt lat="44.17835" lon="4.22948">
        <ele>160</ele>
        <time>2010-01-01T00:28:37Z</time>
      </trkpt>
      <trkpt lat="44.17831" lon="4.22983">
        <ele>160</ele>
        <time>2010-01-01T00:28:47Z</time>
      </trkpt>
      <trkpt lat="44.17829" lon="4.2302">
        <ele>160</ele>
        <time>2010-01-01T00:28:58Z</time>
      </trkpt>
      <trkpt lat="44.1782" lon="4.23054">
        <ele>160</ele>
        <time>2010-01-01T00:29:08Z</time>
      </trkpt>
      <trkpt lat="44.17807" lon="4.23084">
        <ele>160</ele>
        <time>2010-01-01T00:29:19Z</time>
      </trkpt>
      <trkpt lat="44.17795" lon="4.23111">
        <ele>160</ele>
        <time>2010-01-01T00:29:28Z</time>
      </trkpt>
      <trkpt lat="44.17786" lon="4.2313">
        <ele>159</ele>
        <time>2010-01-01T00:29:34Z</time>
      </trkpt>
      <trkpt lat="44.1779" lon="4.23149">
        <ele>159</ele>
        <time>2010-01-01T00:29:40Z</time>
      </trkpt>
      <trkpt lat="44.17808" lon="4.23158">
        <ele>159</ele>
        <time>2010-01-01T00:29:48Z</time>
      </trkpt>
      <trkpt lat="44.17828" lon="4.23164">
        <ele>159</ele>
        <time>2010-01-01T00:29:56Z</time>
      </trkpt>
      <trkpt lat="44.17848" lon="4.23169">
        <ele>161</ele>
        <time>2010-01-01T00:30:04Z</time>
      </trkpt>
      <trkpt lat="44.17869" lon="4.23172">
        <ele>162</ele>
        <time>2010-01-01T00:30:13Z</time>
      </trkpt>
      <trkpt lat="44.17891" lon="4.23173">
        <ele>162</ele>
        <time>2010-01-01T00:30:21Z</time>
      </trkpt>
      <trkpt lat="44.1791" lon="4.23176">
        <ele>162</ele>
        <time>2010-01-01T00:30:29Z</time>
      </trkpt>
      <trkpt lat="44.1793" lon="4.23179">
        <ele>162</ele>
        <time>2010-01-01T00:30:37Z</time>
      </trkpt>
      <trkpt lat="44.17952" lon="4.23181">
        <ele>162</ele>
        <time>2010-01-01T00:30:46Z</time>
      </trkpt>
      <trkpt lat="44.17975" lon="4.23186">
        <ele>163</ele>
        <time>2010-01-01T00:30:55Z</time>
      </trkpt>
      <trkpt lat="44.17997" lon="4.23193">
        <ele>163</ele>
        <time>2010-01-01T00:31:04Z</time>
      </trkpt>
      <trkpt lat="44.1802" lon="4.23203">
        <ele>164</ele>
        <time>2010-01-01T00:31:14Z</time>
      </trkpt>
      <trkpt lat="44.18044" lon="4.23212">
        <ele>164</ele>
        <time>2010-01-01T00:31:24Z</time>
      </trkpt>
      <trkpt lat="44.18066" lon="4.232">
        <ele>164</ele>
        <time>2010-01-01T00:31:33Z</time>
      </trkpt>
      <trkpt lat="44.18085" lon="4.23171">
        <ele>161</ele>
        <time>2010-01-01T00:31:44Z</time>
      </trkpt>
      <trkpt lat="44.18095" lon="4.23138">
        <ele>161</ele>
        <time>2010-01-01T00:31:55Z</time>
      </trkpt>
      <trkpt lat="44.18104" lon="4.23103">
        <ele>161</ele>
        <time>2010-01-01T00:32:05Z</time>
      </trkpt>
      <trkpt lat="44.18113" lon="4.2307">
        <ele>161</ele>
        <time>2010-01-01T00:32:16Z</time>
      </trkpt>
      <trkpt lat="44.18121" lon="4.23037">
        <ele>160</ele>
        <time>2010-01-01T00:32:25Z</time>
      </trkpt>
      <trkpt lat="44.18134" lon="4.23014">
        <ele>159</ele>
        <time>2010-01-01T00:32:34Z</time>
      </trkpt>
      <trkpt lat="44.18151" lon="4.23014">
        <ele>158</ele>
        <time>2010-01-01T00:32:41Z</time>
      </trkpt>
      <trkpt lat="44.18165" lon="4.23014">
        <ele>158</ele>
        <time>2010-01-01T00:32:46Z</time>
      </trkpt>
      <trkpt lat="44.18173" lon="4.23007">
        <ele>158</ele>
        <time>2010-01-01T00:32:50Z</time>
      </trkpt>
      <trkpt lat="44.18177" lon="4.23001">
        <ele>158</ele>
        <time>2010-01-01T00:32:53Z</time>
      </trkpt>
      <trkpt lat="44.18181" lon="4.22997">
        <ele>158</ele>
        <time>2010-01-01T00:32:55Z</time>
      </trkpt>
      <trkpt lat="44.18187" lon="4.2299">
        <ele>158</ele>
        <time>2010-01-01T00:32:58Z</time>
      </trkpt>
      <trkpt lat="44.18195" lon="4.2297">
        <ele>158</ele>
        <time>2010-01-01T00:33:04Z</time>
      </trkpt>
      <trkpt lat="44.18203" lon="4.22949">
        <ele>158</ele>
        <time>2010-01-01T00:33:11Z</time>
      </trkpt>
      <trkpt lat="44.18211" lon="4.22928">
        <ele>158</ele>
        <time>2010-01-01T00:33:18Z</time>
      </trkpt>
      <trkpt lat="44.18221" lon="4.22913">
        <ele>158</ele>
        <time>2010-01-01T00:33:24Z</time>
      </trkpt>
      <trkpt lat="44.18229" lon="4.22909">
        <ele>157</ele>
        <time>2010-01-01T00:33:27Z</time>
      </trkpt>
      <trkpt lat="44.18241" lon="4.22902">
        <ele>157</ele>
        <time>2010-01-01T00:33:33Z</time>
      </trkpt>
      <trkpt lat="44.18258" lon="4.22896">
        <ele>157</ele>
        <time>2010-01-01T00:33:39Z</time>
      </trkpt>
      <trkpt lat="44.18278" lon="4.22888">
        <ele>157</ele>
        <time>2010-01-01T00:33:48Z</time>
      </trkpt>
      <trkpt lat="44.18297" lon="4.22883">
        <ele>157</ele>
        <time>2010-01-01T00:33:55Z</time>
      </trkpt>
      <trkpt lat="44.18317" lon="4.22887">
        <ele>157</ele>
        <time>2010-01-01T00:34:04Z</time>
      </trkpt>
      <trkpt lat="44.18338" lon="4.22892">
        <ele>157</ele>
        <time>2010-01-01T00:34:12Z</time>
      </trkpt>
      <trkpt lat="44.18359" lon="4.22886">
        <ele>157</ele>
        <time>2010-01-01T00:34:21Z</time>
      </trkpt>
      <trkpt lat="44.1838" lon="4.22883">
        <ele>157</ele>
        <time>2010-01-01T00:34:29Z</time>
      </trkpt>
      <trkpt lat="44.18396" lon="4.22899">
        <ele>156</ele>
        <time>2010-01-01T00:34:37Z</time>
      </trkpt>
      <trkpt lat="44.18403" lon="4.22921">
        <ele>156</ele>
        <time>2010-01-01T00:34:44Z</time>
      </trkpt>
      <trkpt lat="44.18408" lon="4.22946">
        <ele>156</ele>
        <time>2010-01-01T00:34:52Z</time>
      </trkpt>
      <trkpt lat="44.18414" lon="4.22969">
        <ele>156</ele>
        <time>2010-01-01T00:34:58Z</time>
      </trkpt>
      <trkpt lat="44.18425" lon="4.22992">
        <ele>156</ele>
        <time>2010-01-01T00:35:06Z</time>
      </trkpt>
      <trkpt lat="44.18443" lon="4.2301">
        <ele>156</ele>
        <time>2010-01-01T00:35:15Z</time>
      </trkpt>
      <trkpt lat="44.18462" lon="4.2303">
        <ele>156</ele>
        <time>2010-01-01T00:35:25Z</time>
      </trkpt>
      <trkpt lat="44.18485" lon="4.23044">
        <ele>156</ele>
        <time>2010-01-01T00:35:35Z</time>
      </trkpt>
      <trkpt lat="44.18502" lon="4.23068">
        <ele>156</ele>
        <time>2010-01-01T00:35:44Z</time>
      </trkpt>
      <trkpt lat="44.18513" lon="4.23092">
        <ele>156</ele>
        <time>2010-01-01T00:35:52Z</time>
      </trkpt>
      <trkpt lat="44.18531" lon="4.231">
        <ele>156</ele>
        <time>2010-01-01T00:36:00Z</time>
      </trkpt>
      <trkpt lat="44.18555" lon="4.23111">
        <ele>156</ele>
        <time>2010-01-01T00:36:10Z</time>
      </trkpt>
      <trkpt lat="44.18578" lon="4.23127">
        <ele>156</ele>
        <time>2010-01-01T00:36:21Z</time>
      </trkpt>
      <trkpt lat="44.18603" lon="4.23141">
        <ele>156</ele>
        <time>2010-01-01T00:36:31Z</time>
      </trkpt>
      <trkpt lat="44.18627" lon="4.23156">
        <ele>155</ele>
        <time>2010-01-01T00:36:42Z</time>
      </trkpt>
      <trkpt lat="44.18653" lon="4.23173">
        <ele>155</ele>
        <time>2010-01-01T00:36:53Z</time>
      </trkpt>
      <trkpt lat="44.18675" lon="4.23193">
        <ele>155</ele>
        <time>2010-01-01T00:37:04Z</time>
      </trkpt>
      <trkpt lat="44.18698" lon="4.23211">
        <ele>155</ele>
        <time>2010-01-01T00:37:15Z</time>
      </trkpt>
      <trkpt lat="44.18722" lon="4.23226">
        <ele>155</ele>
        <time>2010-01-01T00:37:25Z</time>
      </trkpt>
      <trkpt lat="44.18744" lon="4.23246">
        <ele>155</ele>
        <time>2010-01-01T00:37:36Z</time>
      </trkpt>
      <trkpt lat="44.18766" lon="4.23266">
        <ele>155</ele>
        <time>2010-01-01T00:37:46Z</time>
      </trkpt>
      <trkpt lat="44.18789" lon="4.23282">
        <ele>155</ele>
        <time>2010-01-01T00:37:56Z</time>
      </trkpt>
      <trkpt lat="44.18804" lon="4.2328">
        <ele>154</ele>
        <time>2010-01-01T00:38:02Z</time>
      </trkpt>
      <trkpt lat="44.18814" lon="4.2326">
        <ele>154</ele>
        <time>2010-01-01T00:38:09Z</time>
      </trkpt>
      <trkpt lat="44.18822" lon="4.23235">
        <ele>154</ele>
        <time>2010-01-01T00:38:17Z</time>
      </trkpt>
      <trkpt lat="44.18821" lon="4.23212">
        <ele>155</ele>
        <time>2010-01-01T00:38:24Z</time>
      </trkpt>
      <trkpt lat="44.18822" lon="4.2321">
        <ele>155</ele>
        <time>2010-01-01T00:38:24Z</time>
      </trkpt>
      <trkpt lat="44.18822" lon="4.2321">
        <ele>155</ele>
        <time>2010-01-01T00:38:24Z</time>
      </trkpt>
      <trkpt lat="44.18822" lon="4.23194">
        <ele>156</ele>
        <time>2010-01-01T00:38:29Z</time>
      </trkpt>
      <trkpt lat="44.18821" lon="4.23188">
        <ele>157</ele>
        <time>2010-01-01T00:38:31Z</time>
      </trkpt>
      <trkpt lat="44.18821" lon="4.23187">
        <ele>157</ele>
        <time>2010-01-01T00:38:31Z</time>
      </trkpt>
      <trkpt lat="44.18802" lon="4.2319">
        <ele>157</ele>
        <time>2010-01-01T00:38:38Z</time>
      </trkpt>
      <trkpt lat="44.18782" lon="4.23182">
        <ele>157</ele>
        <time>2010-01-01T00:38:47Z</time>
      </trkpt>
      <trkpt lat="44.18759" lon="4.23173">
        <ele>156</ele>
        <time>2010-01-01T00:38:56Z</time>
      </trkpt>
      <trkpt lat="44.18736" lon="4.23165">
        <ele>155</ele>
        <time>2010-01-01T00:39:06Z</time>
      </trkpt>
      <trkpt lat="44.18713" lon="4.23158">
        <ele>155</ele>
        <time>2010-01-01T00:39:15Z</time>
      </trkpt>
      <trkpt lat="44.1869" lon="4.23146">
        <ele>155</ele>
        <time>2010-01-01T00:39:25Z</time>
      </trkpt>
      <trkpt lat="44.18674" lon="4.23125">
        <ele>155</ele>
        <time>2010-01-01T00:39:34Z</time>
      </trkpt>
      <trkpt lat="44.18663" lon="4.23102">
        <ele>155</ele>
        <time>2010-01-01T00:39:42Z</time>
      </trkpt>
      <trkpt lat="44.18647" lon="4.23079">
        <ele>155</ele>
        <time>2010-01-01T00:39:51Z</time>
      </trkpt>
      <trkpt lat="44.18631" lon="4.23058">
        <ele>155</ele>
        <time>2010-01-01T00:40:00Z</time>
      </trkpt>
      <trkpt lat="44.18617" lon="4.23036">
        <ele>155</ele>
        <time>2010-01-01T00:40:08Z</time>
      </trkpt>
      <trkpt lat="44.18609" lon="4.23014">
        <ele>156</ele>
        <time>2010-01-01T00:40:15Z</time>
      </trkpt>
      <trkpt lat="44.18623" lon="4.22997">
        <ele>156</ele>
        <time>2010-01-01T00:40:23Z</time>
      </trkpt>
      <trkpt lat="44.18639" lon="4.22981">
        <ele>156</ele>
        <time>2010-01-01T00:40:30Z</time>
      </trkpt>
      <trkpt lat="44.18652" lon="4.22963">
        <ele>157</ele>
        <time>2010-01-01T00:40:38Z</time>
      </trkpt>
      <trkpt lat="44.18672" lon="4.22961">
        <ele>158</ele>
        <time>2010-01-01T00:40:46Z</time>
      </trkpt>
      <trkpt lat="44.18692" lon="4.2297">
        <ele>159</ele>
        <time>2010-01-01T00:40:54Z</time>
      </trkpt>
      <trkpt lat="44.18712" lon="4.22968">
        <ele>159</ele>
        <time>2010-01-01T00:41:02Z</time>
      </trkpt>
      <trkpt lat="44.1873" lon="4.22958">
        <ele>160</ele>
        <time>2010-01-01T00:41:10Z</time>
      </trkpt>
      <trkpt lat="44.18747" lon="4.22945">
        <ele>162</ele>
        <time>2010-01-01T00:41:18Z</time>
      </trkpt>
      <trkpt lat="44.18756" lon="4.22966">
        <ele>162</ele>
        <time>2010-01-01T00:41:25Z</time>
      </trkpt>
      <trkpt lat="44.18773" lon="4.22989">
        <ele>162</ele>
        <time>2010-01-01T00:41:34Z</time>
      </trkpt>
      <trkpt lat="44.1879" lon="4.2301">
        <ele>162</ele>
        <time>2010-01-01T00:41:43Z</time>
      </trkpt>
      <trkpt lat="44.18799" lon="4.23035">
        <ele>162</ele>
        <time>2010-01-01T00:41:51Z</time>
      </trkpt>
      <trkpt lat="44.18812" lon="4.2305">
        <ele>163</ele>
        <time>2010-01-01T00:41:58Z</time>
      </trkpt>
      <trkpt lat="44.18816" lon="4.23035">
        <ele>164</ele>
        <time>2010-01-01T00:42:03Z</time>
      </trkpt>
      <trkpt lat="44.18814" lon="4.23019">
        <ele>165</ele>
        <time>2010-01-01T00:42:07Z</time>
      </trkpt>
      <trkpt lat="44.18814" lon="4.23002">
        <ele>167</ele>
        <time>2010-01-01T00:42:12Z</time>
      </trkpt>
      <trkpt lat="44.18814" lon="4.22982">
        <ele>168</ele>
        <time>2010-01-01T00:42:18Z</time>
      </trkpt>
      <trkpt lat="44.18815" lon="4.22962">
        <ele>170</ele>
        <time>2010-01-01T00:42:24Z</time>
      </trkpt>
      <trkpt lat="44.18818" lon="4.22942">
        <ele>171</ele>
        <time>2010-01-01T00:42:30Z</time>
      </trkpt>
      <trkpt lat="44.18822" lon="4.22922">
        <ele>173</ele>
        <time>2010-01-01T00:42:36Z</time>
      </trkpt>
      <trkpt lat="44.18824" lon="4.22904">
        <ele>173</ele>
        <time>2010-01-01T00:42:41Z</time>
      </trkpt>
      <trkpt lat="44.18821" lon="4.22885">
        <ele>174</ele>
        <time>2010-01-01T00:42:46Z</time>
      </trkpt>
      <trkpt lat="44.18819" lon="4.22864">
        <ele>176</ele>
        <time>2010-01-01T00:42:53Z</time>
      </trkpt>
      <trkpt lat="44.18814" lon="4.22843">
        <ele>176</ele>
        <time>2010-01-01T00:42:59Z</time>
      </trkpt>
      <trkpt lat="44.18811" lon="4.22823">
        <ele>177</ele>
        <time>2010-01-01T00:43:05Z</time>
      </trkpt>
      <trkpt lat="44.18807" lon="4.22804">
        <ele>178</ele>
        <time>2010-01-01T00:43:10Z</time>
      </trkpt>
      <trkpt lat="44.18802" lon="4.22785">
        <ele>179</ele>
        <time>2010-01-01T00:43:16Z</time>
      </trkpt>
      <trkpt lat="44.18797" lon="4.22767">
        <ele>181</ele>
        <time>2010-01-01T00:43:22Z</time>
      </trkpt>
      <trkpt lat="44.18792" lon="4.22751">
        <ele>182</ele>
        <time>2010-01-01T00:43:27Z</time>
      </trkpt>
      <trkpt lat="44.18787" lon="4.22732">
        <ele>184</ele>
        <time>2010-01-01T00:43:33Z</time>
      </trkpt>
      <trkpt lat="44.18782" lon="4.22712">
        <ele>185</ele>
        <time>2010-01-01T00:43:39Z</time>
      </trkpt>
      <trkpt lat="44.18777" lon="4.2269">
        <ele>186</ele>
        <time>2010-01-01T00:43:45Z</time>
      </trkpt>
      <trkpt lat="44.18772" lon="4.22672">
        <ele>187</ele>
        <time>2010-01-01T00:43:51Z</time>
      </trkpt>
      <trkpt lat="44.18766" lon="4.22652">
        <ele>188</ele>
        <time>2010-01-01T00:43:57Z</time>
      </trkpt>
      <trkpt lat="44.18762" lon="4.22637">
        <ele>189</ele>
        <time>2010-01-01T00:44:02Z</time>
      </trkpt>
      <trkpt lat="44.18757" lon="4.22617">
        <ele>191</ele>
        <time>2010-01-01T00:44:08Z</time>
      </trkpt>
      <trkpt lat="44.18749" lon="4.22595">
        <ele>192</ele>
        <time>2010-01-01T00:44:15Z</time>
      </trkpt>
      <trkpt lat="44.18746" lon="4.22569">
        <ele>192</ele>
        <time>2010-01-01T00:44:22Z</time>
      </trkpt>
      <trkpt lat="44.18744" lon="4.22541">
        <ele>193</ele>
        <time>2010-01-01T00:44:30Z</time>
      </trkpt>
      <trkpt lat="44.18749" lon="4.22517">
        <ele>193</ele>
        <time>2010-01-01T00:44:37Z</time>
      </trkpt>
      <trkpt lat="44.18759" lon="4.22519">
        <ele>194</ele>
        <time>2010-01-01T00:44:42Z</time>
      </trkpt>
      <trkpt lat="44.18771" lon="4.2253">
        <ele>195</ele>
        <time>2010-01-01T00:44:47Z</time>
      </trkpt>
      <trkpt lat="44.18783" lon="4.22535">
        <ele>197</ele>
        <time>2010-01-01T00:44:52Z</time>
      </trkpt>
      <trkpt lat="44.18795" lon="4.22533">
        <ele>198</ele>
        <time>2010-01-01T00:44:57Z</time>
      </trkpt>
      <trkpt lat="44.18808" lon="4.22519">
        <ele>199</ele>
        <time>2010-01-01T00:45:04Z</time>
      </trkpt>
      <trkpt lat="44.18823" lon="4.22499">
        <ele>200</ele>
        <time>2010-01-01T00:45:12Z</time>
      </trkpt>
      <trkpt lat="44.18841" lon="4.22484">
        <ele>200</ele>
        <time>2010-01-01T00:45:21Z</time>
      </trkpt>
      <trkpt lat="44.18861" lon="4.22471">
        <ele>200</ele>
        <time>2010-01-01T00:45:30Z</time>
      </trkpt>
      <trkpt lat="44.18883" lon="4.22458">
        <ele>198</ele>
        <time>2010-01-01T00:45:39Z</time>
      </trkpt>
      <trkpt lat="44.18898" lon="4.22427">
        <ele>197</ele>
        <time>2010-01-01T00:45:50Z</time>
      </trkpt>
      <trkpt lat="44.18893" lon="4.22403">
        <ele>196</ele>
        <time>2010-01-01T00:45:57Z</time>
      </trkpt>
      <trkpt lat="44.18904" lon="4.22376">
        <ele>193</ele>
        <time>2010-01-01T00:46:06Z</time>
      </trkpt>
      <trkpt lat="44.18915" lon="4.22335">
        <ele>191</ele>
        <time>2010-01-01T00:46:18Z</time>
      </trkpt>
      <trkpt lat="44.1894" lon="4.22324">
        <ele>186</ele>
        <time>2010-01-01T00:46:29Z</time>
      </trkpt>
      <trkpt lat="44.18965" lon="4.22319">
        <ele>183</ele>
        <time>2010-01-01T00:46:39Z</time>
      </trkpt>
      <trkpt lat="44.18983" lon="4.22298">
        <ele>179</ele>
        <time>2010-01-01T00:46:48Z</time>
      </trkpt>
      <trkpt lat="44.19006" lon="4.22309">
        <ele>175</ele>
        <time>2010-01-01T00:46:58Z</time>
      </trkpt>
      <trkpt lat="44.19026" lon="4.22327">
        <ele>173</ele>
        <time>2010-01-01T00:47:08Z</time>
      </trkpt>
      <trkpt lat="44.19047" lon="4.22347">
        <ele>172</ele>
        <time>2010-01-01T00:47:18Z</time>
      </trkpt>
      <trkpt lat="44.19065" lon="4.22367">
        <ele>171</ele>
        <time>2010-01-01T00:47:27Z</time>
      </trkpt>
      <trkpt lat="44.1908" lon="4.22387">
        <ele>171</ele>
        <time>2010-01-01T00:47:36Z</time>
      </trkpt>
      <trkpt lat="44.19093" lon="4.22412">
        <ele>171</ele>
        <time>2010-01-01T00:47:44Z</time>
      </trkpt>
      <trkpt lat="44.19104" lon="4.22449">
        <ele>171</ele>
        <time>2010-01-01T00:47:56Z</time>
      </trkpt>
      <trkpt lat="44.19117" lon="4.22483">
        <ele>169</ele>
        <time>2010-01-01T00:48:07Z</time>
      </trkpt>
      <trkpt lat="44.19134" lon="4.22509">
        <ele>167</ele>
        <time>2010-01-01T00:48:17Z</time>
      </trkpt>
      <trkpt lat="44.19155" lon="4.22529">
        <ele>167</ele>
        <time>2010-01-01T00:48:27Z</time>
      </trkpt>
      <trkpt lat="44.19182" lon="4.22551">
        <ele>165</ele>
        <time>2010-01-01T00:48:40Z</time>
      </trkpt>
      <trkpt lat="44.19205" lon="4.22578">
        <ele>163</ele>
        <time>2010-01-01T00:48:52Z</time>
      </trkpt>
      <trkpt lat="44.19227" lon="4.226">
        <ele>163</ele>
        <time>2010-01-01T00:49:03Z</time>
      </trkpt>
      <trkpt lat="44.19248" lon="4.22619">
        <ele>163</ele>
        <time>2010-01-01T00:49:13Z</time>
      </trkpt>
      <trkpt lat="44.19245" lon="4.22636">
        <ele>163</ele>
        <time>2010-01-01T00:49:18Z</time>
      </trkpt>
      <trkpt lat="44.19241" lon="4.2265">
        <ele>164</ele>
        <time>2010-01-01T00:49:22Z</time>
      </trkpt>
      <trkpt lat="44.19236" lon="4.22663">
        <ele>165</ele>
        <time>2010-01-01T00:49:26Z</time>
      </trkpt>
      <trkpt lat="44.19233" lon="4.22675">
        <ele>166</ele>
        <time>2010-01-01T00:49:30Z</time>
      </trkpt>
      <trkpt lat="44.19228" lon="4.22686">
        <ele>168</ele>
        <time>2010-01-01T00:49:33Z</time>
      </trkpt>
      <trkpt lat="44.19222" lon="4.22694">
        <ele>170</ele>
        <time>2010-01-01T00:49:37Z</time>
      </trkpt>
      <trkpt lat="44.19215" lon="4.22702">
        <ele>171</ele>
        <time>2010-01-01T00:49:40Z</time>
      </trkpt>
      <trkpt lat="44.19208" lon="4.22712">
        <ele>173</ele>
        <time>2010-01-01T00:49:44Z</time>
      </trkpt>
      <trkpt lat="44.19202" lon="4.22721">
        <ele>174</ele>
        <time>2010-01-01T00:49:48Z</time>
      </trkpt>
      <trkpt lat="44.19196" lon="4.2273">
        <ele>175</ele>
        <time>2010-01-01T00:49:52Z</time>
      </trkpt>
      <trkpt lat="44.19189" lon="4.2274">
        <ele>176</ele>
        <time>2010-01-01T00:49:55Z</time>
      </trkpt>
      <trkpt lat="44.19184" lon="4.2275">
        <ele>178</ele>
        <time>2010-01-01T00:49:59Z</time>
      </trkpt>
      <trkpt lat="44.19182" lon="4.22764">
        <ele>179</ele>
        <time>2010-01-01T00:50:03Z</time>
      </trkpt>
      <trkpt lat="44.19179" lon="4.2278">
        <ele>180</ele>
        <time>2010-01-01T00:50:08Z</time>
      </trkpt>
      <trkpt lat="44.19177" lon="4.22795">
        <ele>181</ele>
        <time>2010-01-01T00:50:12Z</time>
      </trkpt>
      <trkpt lat="44.19178" lon="4.22811">
        <ele>182</ele>
        <time>2010-01-01T00:50:17Z</time>
      </trkpt>
      <trkpt lat="44.19177" lon="4.22827">
        <ele>183</ele>
        <time>2010-01-01T00:50:21Z</time>
      </trkpt>
      <trkpt lat="44.19189" lon="4.2284">
        <ele>183</ele>
        <time>2010-01-01T00:50:27Z</time>
      </trkpt>
      <trkpt lat="44.19202" lon="4.22856">
        <ele>183</ele>
        <time>2010-01-01T00:50:34Z</time>
      </trkpt>
      <trkpt lat="44.1921" lon="4.22868">
        <ele>183</ele>
        <time>2010-01-01T00:50:39Z</time>
      </trkpt>
      <trkpt lat="44.19214" lon="4.22883">
        <ele>183</ele>
        <time>2010-01-01T00:50:44Z</time>
      </trkpt>
      <trkpt lat="44.19209" lon="4.22889">
        <ele>183</ele>
        <time>2010-01-01T00:50:46Z</time>
      </trkpt>
      <trkpt lat="44.19207" lon="4.22898">
        <ele>184</ele>
        <time>2010-01-01T00:50:49Z</time>
      </trkpt>
      <trkpt lat="44.19197" lon="4.22894">
        <ele>184</ele>
        <time>2010-01-01T00:50:54Z</time>
      </trkpt>
      <trkpt lat="44.19183" lon="4.22885">
        <ele>185</ele>
        <time>2010-01-01T00:51:00Z</time>
      </trkpt>
      <trkpt lat="44.1917" lon="4.22871">
        <ele>185</ele>
        <time>2010-01-01T00:51:06Z</time>
      </trkpt>
      <trkpt lat="44.1916" lon="4.2286">
        <ele>186</ele>
        <time>2010-01-01T00:51:11Z</time>
      </trkpt>
      <trkpt lat="44.19151" lon="4.2285">
        <ele>188</ele>
        <time>2010-01-01T00:51:16Z</time>
      </trkpt>
      <trkpt lat="44.19141" lon="4.22844">
        <ele>189</ele>
        <time>2010-01-01T00:51:20Z</time>
      </trkpt>
      <trkpt lat="44.19132" lon="4.22839">
        <ele>189</ele>
        <time>2010-01-01T00:51:24Z</time>
      </trkpt>
      <trkpt lat="44.19118" lon="4.22829">
        <ele>190</ele>
        <time>2010-01-01T00:51:30Z</time>
      </trkpt>
      <trkpt lat="44.19105" lon="4.22821">
        <ele>192</ele>
        <time>2010-01-01T00:51:36Z</time>
      </trkpt>
      <trkpt lat="44.19092" lon="4.2281">
        <ele>192</ele>
        <time>2010-01-01T00:51:42Z</time>
      </trkpt>
      <trkpt lat="44.1908" lon="4.228">
        <ele>193</ele>
        <time>2010-01-01T00:51:48Z</time>
      </trkpt>
      <trkpt lat="44.19068" lon="4.22792">
        <ele>194</ele>
        <time>2010-01-01T00:51:53Z</time>
      </trkpt>
      <trkpt lat="44.19053" lon="4.22784">
        <ele>195</ele>
        <time>2010-01-01T00:52:00Z</time>
      </trkpt>
      <trkpt lat="44.19033" lon="4.22777">
        <ele>195</ele>
        <time>2010-01-01T00:52:08Z</time>
      </trkpt>
      <trkpt lat="44.19015" lon="4.22772">
        <ele>195</ele>
        <time>2010-01-01T00:52:15Z</time>
      </trkpt>
      <trkpt lat="44.19006" lon="4.22755">
        <ele>195</ele>
        <time>2010-01-01T00:52:21Z</time>
      </trkpt>
      <trkpt lat="44.18996" lon="4.22749">
        <ele>195</ele>
        <time>2010-01-01T00:52:26Z</time>
      </trkpt>
      <trkpt lat="44.18985" lon="4.22745">
        <ele>196</ele>
        <time>2010-01-01T00:52:30Z</time>
      </trkpt>
      <trkpt lat="44.18977" lon="4.22738">
        <ele>198</ele>
        <time>2010-01-01T00:52:34Z</time>
      </trkpt>
      <trkpt lat="44.18966" lon="4.22736">
        <ele>199</ele>
        <time>2010-01-01T00:52:39Z</time>
      </trkpt>
      <trkpt lat="44.18955" lon="4.22731">
        <ele>201</ele>
        <time>2010-01-01T00:52:43Z</time>
      </trkpt>
      <trkpt lat="44.18944" lon="4.22724">
        <ele>202</ele>
        <time>2010-01-01T00:52:48Z</time>
      </trkpt>
      <trkpt lat="44.1893" lon="4.2272">
        <ele>203</ele>
        <time>2010-01-01T00:52:53Z</time>
      </trkpt>
      <trkpt lat="44.18918" lon="4.22722">
        <ele>204</ele>
        <time>2010-01-01T00:52:58Z</time>
      </trkpt>
      <trkpt lat="44.18908" lon="4.22725">
        <ele>206</ele>
        <time>2010-01-01T00:53:03Z</time>
      </trkpt>
      <trkpt lat="44.18896" lon="4.22725">
        <ele>207</ele>
        <time>2010-01-01T00:53:07Z</time>
      </trkpt>
      <trkpt lat="44.1889" lon="4.22734">
        <ele>208</ele>
        <time>2010-01-01T00:53:11Z</time>
      </trkpt>
      <trkpt lat="44.18892" lon="4.22754">
        <ele>208</ele>
        <time>2010-01-01T00:53:17Z</time>
      </trkpt>
      <trkpt lat="44.18893" lon="4.22779">
        <ele>208</ele>
        <time>2010-01-01T00:53:24Z</time>
      </trkpt>
      <trkpt lat="44.18899" lon="4.22803">
        <ele>208</ele>
        <time>2010-01-01T00:53:31Z</time>
      </trkpt>
      <trkpt lat="44.18904" lon="4.22822">
        <ele>208</ele>
        <time>2010-01-01T00:53:37Z</time>
      </trkpt>
      <trkpt lat="44.18909" lon="4.22847">
        <ele>208</ele>
        <time>2010-01-01T00:53:45Z</time>
      </trkpt>
      <trkpt lat="44.18911" lon="4.22871">
        <ele>208</ele>
        <time>2010-01-01T00:53:51Z</time>
      </trkpt>
      <trkpt lat="44.18912" lon="4.2289">
        <ele>208</ele>
        <time>2010-01-01T00:53:57Z</time>
      </trkpt>
      <trkpt lat="44.18921" lon="4.22903">
        <ele>209</ele>
        <time>2010-01-01T00:54:02Z</time>
      </trkpt>
      <trkpt lat="44.18923" lon="4.2292">
        <ele>211</ele>
        <time>2010-01-01T00:54:07Z</time>
      </trkpt>
      <trkpt lat="44.18926" lon="4.2294">
        <ele>212</ele>
        <time>2010-01-01T00:54:13Z</time>
      </trkpt>
      <trkpt lat="44.18931" lon="4.22961">
        <ele>212</ele>
        <time>2010-01-01T00:54:19Z</time>
      </trkpt>
      <trkpt lat="44.1894" lon="4.22987">
        <ele>213</ele>
        <time>2010-01-01T00:54:27Z</time>
      </trkpt>
      <trkpt lat="44.18943" lon="4.23016">
        <ele>212</ele>
        <time>2010-01-01T00:54:36Z</time>
      </trkpt>
      <trkpt lat="44.18947" lon="4.23038">
        <ele>212</ele>
        <time>2010-01-01T00:54:42Z</time>
      </trkpt>
      <trkpt lat="44.1895" lon="4.23056">
        <ele>212</ele>
        <time>2010-01-01T00:54:48Z</time>
      </trkpt>
      <trkpt lat="44.18952" lon="4.23073">
        <ele>213</ele>
        <time>2010-01-01T00:54:53Z</time>
      </trkpt>
      <trkpt lat="44.1896" lon="4.23088">
        <ele>214</ele>
        <time>2010-01-01T00:54:58Z</time>
      </trkpt>
      <trkpt lat="44.1896" lon="4.23109">
        <ele>215</ele>
        <time>2010-01-01T00:55:04Z</time>
      </trkpt>
      <trkpt lat="44.18965" lon="4.23126">
        <ele>216</ele>
        <time>2010-01-01T00:55:09Z</time>
      </trkpt>
      <trkpt lat="44.18973" lon="4.23142">
        <ele>217</ele>
        <time>2010-01-01T00:55:15Z</time>
      </trkpt>
      <trkpt lat="44.18979" lon="4.23157">
        <ele>217</ele>
        <time>2010-01-01T00:55:20Z</time>
      </trkpt>
      <trkpt lat="44.18987" lon="4.23176">
        <ele>217</ele>
        <time>2010-01-01T00:55:26Z</time>
      </trkpt>
      <trkpt lat="44.18996" lon="4.23198">
        <ele>216</ele>
        <time>2010-01-01T00:55:33Z</time>
      </trkpt>
      <trkpt lat="44.19011" lon="4.23204">
        <ele>215</ele>
        <time>2010-01-01T00:55:40Z</time>
      </trkpt>
      <trkpt lat="44.19029" lon="4.23202">
        <ele>213</ele>
        <time>2010-01-01T00:55:47Z</time>
      </trkpt>
      <trkpt lat="44.19048" lon="4.23202">
        <ele>211</ele>
        <time>2010-01-01T00:55:55Z</time>
      </trkpt>
      <trkpt lat="44.19069" lon="4.232">
        <ele>208</ele>
        <time>2010-01-01T00:56:03Z</time>
      </trkpt>
      <trkpt lat="44.19091" lon="4.23193">
        <ele>205</ele>
        <time>2010-01-01T00:56:12Z</time>
      </trkpt>
      <trkpt lat="44.19113" lon="4.23184">
        <ele>202</ele>
        <time>2010-01-01T00:56:21Z</time>
      </trkpt>
      <trkpt lat="44.19134" lon="4.23172">
        <ele>198</ele>
        <time>2010-01-01T00:56:30Z</time>
      </trkpt>
      <trkpt lat="44.19155" lon="4.23168">
        <ele>195</ele>
        <time>2010-01-01T00:56:39Z</time>
      </trkpt>
      <trkpt lat="44.1918" lon="4.2317">
        <ele>193</ele>
        <time>2010-01-01T00:56:49Z</time>
      </trkpt>
      <trkpt lat="44.19206" lon="4.23166">
        <ele>189</ele>
        <time>2010-01-01T00:56:59Z</time>
      </trkpt>
      <trkpt lat="44.19232" lon="4.23164">
        <ele>187</ele>
        <time>2010-01-01T00:57:10Z</time>
      </trkpt>
      <trkpt lat="44.19256" lon="4.2317">
        <ele>183</ele>
        <time>2010-01-01T00:57:19Z</time>
      </trkpt>
      <trkpt lat="44.19279" lon="4.23193">
        <ele>181</ele>
        <time>2010-01-01T00:57:31Z</time>
      </trkpt>
      <trkpt lat="44.19297" lon="4.23187">
        <ele>176</ele>
        <time>2010-01-01T00:57:38Z</time>
      </trkpt>
      <trkpt lat="44.19312" lon="4.23162">
        <ele>176</ele>
        <time>2010-01-01T00:57:48Z</time>
      </trkpt>
      <trkpt lat="44.19327" lon="4.23138">
        <ele>175</ele>
        <time>2010-01-01T00:57:57Z</time>
      </trkpt>
      <trkpt lat="44.19345" lon="4.23143">
        <ele>174</ele>
        <time>2010-01-01T00:58:04Z</time>
      </trkpt>
      <trkpt lat="44.1936" lon="4.23153">
        <ele>174</ele>
        <time>2010-01-01T00:58:11Z</time>
      </trkpt>
      <trkpt lat="44.19373" lon="4.23163">
        <ele>174</ele>
        <time>2010-01-01T00:58:17Z</time>
      </trkpt>
      <trkpt lat="44.19384" lon="4.23169">
        <ele>174</ele>
        <time>2010-01-01T00:58:22Z</time>
      </trkpt>
      <trkpt lat="44.19394" lon="4.23176">
        <ele>176</ele>
        <time>2010-01-01T00:58:26Z</time>
      </trkpt>
      <trkpt lat="44.19396" lon="4.23189">
        <ele>178</ele>
        <time>2010-01-01T00:58:30Z</time>
      </trkpt>
      <trkpt lat="44.19395" lon="4.23206">
        <ele>180</ele>
        <time>2010-01-01T00:58:35Z</time>
      </trkpt>
      <trkpt lat="44.19391" lon="4.23228">
        <ele>180</ele>
        <time>2010-01-01T00:58:41Z</time>
      </trkpt>
      <trkpt lat="44.19385" lon="4.23252">
        <ele>180</ele>
        <time>2010-01-01T00:58:49Z</time>
      </trkpt>
      <trkpt lat="44.19379" lon="4.23277">
        <ele>180</ele>
        <time>2010-01-01T00:58:56Z</time>
      </trkpt>
      <trkpt lat="44.19373" lon="4.23303">
        <ele>180</ele>
        <time>2010-01-01T00:59:04Z</time>
      </trkpt>
      <trkpt lat="44.19366" lon="4.23325">
        <ele>180</ele>
        <time>2010-01-01T00:59:11Z</time>
      </trkpt>
      <trkpt lat="44.19359" lon="4.23344">
        <ele>180</ele>
        <time>2010-01-01T00:59:17Z</time>
      </trkpt>
      <trkpt lat="44.1935" lon="4.23361">
        <ele>181</ele>
        <time>2010-01-01T00:59:23Z</time>
      </trkpt>
      <trkpt lat="44.19342" lon="4.23377">
        <ele>182</ele>
        <time>2010-01-01T00:59:29Z</time>
      </trkpt>
      <trkpt lat="44.19346" lon="4.23388">
        <ele>183</ele>
        <time>2010-01-01T00:59:32Z</time>
      </trkpt>
      <trkpt lat="44.19353" lon="4.23396">
        <ele>185</ele>
        <time>2010-01-01T00:59:36Z</time>
      </trkpt>
      <trkpt lat="44.19359" lon="4.23403">
        <ele>186</ele>
        <time>2010-01-01T00:59:39Z</time>
      </trkpt>
      <trkpt lat="44.19368" lon="4.23407">
        <ele>188</ele>
        <time>2010-01-01T00:59:42Z</time>
      </trkpt>
      <trkpt lat="44.19377" lon="4.23413">
        <ele>189</ele>
        <time>2010-01-01T00:59:47Z</time>
      </trkpt>
      <trkpt lat="44.19388" lon="4.2342">
        <ele>190</ele>
        <time>2010-01-01T00:59:51Z</time>
      </trkpt>
      <trkpt lat="44.19398" lon="4.23426">
        <ele>191</ele>
        <time>2010-01-01T00:59:56Z</time>
      </trkpt>
      <trkpt lat="44.19408" lon="4.23433">
        <ele>192</ele>
        <time>2010-01-01T01:00:00Z</time>
      </trkpt>
      <trkpt lat="44.19417" lon="4.23435">
        <ele>193</ele>
        <time>2010-01-01T01:00:04Z</time>
      </trkpt>
      <trkpt lat="44.19429" lon="4.23435">
        <ele>194</ele>
        <time>2010-01-01T01:00:09Z</time>
      </trkpt>
      <trkpt lat="44.19444" lon="4.23438">
        <ele>195</ele>
        <time>2010-01-01T01:00:15Z</time>
      </trkpt>
      <trkpt lat="44.19458" lon="4.23445">
        <ele>195</ele>
        <time>2010-01-01T01:00:21Z</time>
      </trkpt>
      <trkpt lat="44.19457" lon="4.23456">
        <ele>195</ele>
        <time>2010-01-01T01:00:24Z</time>
      </trkpt>
      <trkpt lat="44.19453" lon="4.23467">
        <ele>196</ele>
        <time>2010-01-01T01:00:27Z</time>
      </trkpt>
      <trkpt lat="44.19455" lon="4.23483">
        <ele>196</ele>
        <time>2010-01-01T01:00:32Z</time>
      </trkpt>
      <trkpt lat="44.19453" lon="4.23496">
        <ele>197</ele>
        <time>2010-01-01T01:00:36Z</time>
      </trkpt>
      <trkpt lat="44.19449" lon="4.23505">
        <ele>198</ele>
        <time>2010-01-01T01:00:39Z</time>
      </trkpt>
      <trkpt lat="44.19444" lon="4.23514">
        <ele>200</ele>
        <time>2010-01-01T01:00:42Z</time>
      </trkpt>
      <trkpt lat="44.19443" lon="4.23525">
        <ele>201</ele>
        <time>2010-01-01T01:00:45Z</time>
      </trkpt>
      <trkpt lat="44.19445" lon="4.23538">
        <ele>202</ele>
        <time>2010-01-01T01:00:49Z</time>
      </trkpt>
      <trkpt lat="44.1945" lon="4.23548">
        <ele>203</ele>
        <time>2010-01-01T01:00:52Z</time>
      </trkpt>
      <trkpt lat="44.19458" lon="4.23558">
        <ele>204</ele>
        <time>2010-01-01T01:00:57Z</time>
      </trkpt>
      <trkpt lat="44.19464" lon="4.23573">
        <ele>205</ele>
        <time>2010-01-01T01:01:02Z</time>
      </trkpt>
      <trkpt lat="44.19473" lon="4.23587">
        <ele>205</ele>
        <time>2010-01-01T01:01:07Z</time>
      </trkpt>
      <trkpt lat="44.19482" lon="4.23599">
        <ele>205</ele>
        <time>2010-01-01T01:01:12Z</time>
      </trkpt>
      <trkpt lat="44.19488" lon="4.23613">
        <ele>207</ele>
        <time>2010-01-01T01:01:17Z</time>
      </trkpt>
      <trkpt lat="44.19494" lon="4.23628">
        <ele>208</ele>
        <time>2010-01-01T01:01:22Z</time>
      </trkpt>
      <trkpt lat="44.195" lon="4.23644">
        <ele>209</ele>
        <time>2010-01-01T01:01:27Z</time>
      </trkpt>
      <trkpt lat="44.19508" lon="4.23661">
        <ele>210</ele>
        <time>2010-01-01T01:01:33Z</time>
      </trkpt>
      <trkpt lat="44.19517" lon="4.23679">
        <ele>210</ele>
        <time>2010-01-01T01:01:39Z</time>
      </trkpt>
      <trkpt lat="44.19528" lon="4.23693">
        <ele>210</ele>
        <time>2010-01-01T01:01:45Z</time>
      </trkpt>
      <trkpt lat="44.19539" lon="4.23715">
        <ele>210</ele>
        <time>2010-01-01T01:01:53Z</time>
      </trkpt>
      <trkpt lat="44.19551" lon="4.23735">
        <ele>208</ele>
        <time>2010-01-01T01:02:00Z</time>
      </trkpt>
      <trkpt lat="44.19562" lon="4.23746">
        <ele>205</ele>
        <time>2010-01-01T01:02:05Z</time>
      </trkpt>
      <trkpt lat="44.19568" lon="4.23755">
        <ele>203</ele>
        <time>2010-01-01T01:02:09Z</time>
      </trkpt>
      <trkpt lat="44.19578" lon="4.23775">
        <ele>201</ele>
        <time>2010-01-01T01:02:16Z</time>
      </trkpt>
      <trkpt lat="44.19589" lon="4.23795">
        <ele>198</ele>
        <time>2010-01-01T01:02:23Z</time>
      </trkpt>
      <trkpt lat="44.19602" lon="4.23818">
        <ele>194</ele>
        <time>2010-01-01T01:02:32Z</time>
      </trkpt>
      <trkpt lat="44.19615" lon="4.23845">
        <ele>189</ele>
        <time>2010-01-01T01:02:41Z</time>
      </trkpt>
      <trkpt lat="44.19629" lon="4.23871">
        <ele>183</ele>
        <time>2010-01-01T01:02:50Z</time>
      </trkpt>
      <trkpt lat="44.19632" lon="4.239">
        <ele>179</ele>
        <time>2010-01-01T01:02:59Z</time>
      </trkpt>
      <trkpt lat="44.19643" lon="4.23921">
        <ele>173</ele>
        <time>2010-01-01T01:03:06Z</time>
      </trkpt>
      <trkpt lat="44.19656" lon="4.23945">
        <ele>168</ele>
        <time>2010-01-01T01:03:15Z</time>
      </trkpt>
      <trkpt lat="44.19674" lon="4.23972">
        <ele>163</ele>
        <time>2010-01-01T01:03:26Z</time>
      </trkpt>
      <trkpt lat="44.19688" lon="4.23999">
        <ele>161</ele>
        <time>2010-01-01T01:03:35Z</time>
      </trkpt>
      <trkpt lat="44.19704" lon="4.24031">
        <ele>159</ele>
        <time>2010-01-01T01:03:46Z</time>
      </trkpt>
      <trkpt lat="44.19724" lon="4.24059">
        <ele>159</ele>
        <time>2010-01-01T01:03:58Z</time>
      </trkpt>
      <trkpt lat="44.19744" lon="4.24082">
        <ele>159</ele>
        <time>2010-01-01T01:04:08Z</time>
      </trkpt>
      <trkpt lat="44.19766" lon="4.24098">
        <ele>159</ele>
        <time>2010-01-01T01:04:18Z</time>
      </trkpt>
      <trkpt lat="44.19791" lon="4.24114">
        <ele>159</ele>
        <time>2010-01-01T01:04:29Z</time>
      </trkpt>
      <trkpt lat="44.19817" lon="4.24128">
        <ele>159</ele>
        <time>2010-01-01T01:04:40Z</time>
      </trkpt>
      <trkpt lat="44.19845" lon="4.24141">
        <ele>159</ele>
        <time>2010-01-01T01:04:52Z</time>
      </trkpt>
      <trkpt lat="44.19865" lon="4.2418">
        <ele>159</ele>
        <time>2010-01-01T01:05:06Z</time>
      </trkpt>
      <trkpt lat="44.19893" lon="4.24213">
        <ele>155</ele>
        <time>2010-01-01T01:05:20Z</time>
      </trkpt>
      <trkpt lat="44.19886" lon="4.2424">
        <ele>153</ele>
        <time>2010-01-01T01:05:28Z</time>
      </trkpt>
      <trkpt lat="44.1987" lon="4.24264">
        <ele>152</ele>
        <time>2010-01-01T01:05:38Z</time>
      </trkpt>
      <trkpt lat="44.19858" lon="4.24296">
        <ele>152</ele>
        <time>2010-01-01T01:05:48Z</time>
      </trkpt>
      <trkpt lat="44.19844" lon="4.24329">
        <ele>151</ele>
        <time>2010-01-01T01:05:59Z</time>
      </trkpt>
      <trkpt lat="44.19835" lon="4.24364">
        <ele>151</ele>
        <time>2010-01-01T01:06:10Z</time>
      </trkpt>
      <trkpt lat="44.19817" lon="4.24387">
        <ele>150</ele>
        <time>2010-01-01T01:06:20Z</time>
      </trkpt>
      <trkpt lat="44.19809" lon="4.24416">
        <ele>150</ele>
        <time>2010-01-01T01:06:28Z</time>
      </trkpt>
      <trkpt lat="44.19815" lon="4.24446">
        <ele>150</ele>
        <time>2010-01-01T01:06:37Z</time>
      </trkpt>
      <trkpt lat="44.19833" lon="4.24465">
        <ele>150</ele>
        <time>2010-01-01T01:06:46Z</time>
      </trkpt>
      <trkpt lat="44.19852" lon="4.24485">
        <ele>150</ele>
        <time>2010-01-01T01:06:56Z</time>
      </trkpt>
      <trkpt lat="44.19871" lon="4.24504">
        <ele>151</ele>
        <time>2010-01-01T01:07:05Z</time>
      </trkpt>
      <trkpt lat="44.1989" lon="4.24522">
        <ele>152</ele>
        <time>2010-01-01T01:07:14Z</time>
      </trkpt>
      <trkpt lat="44.19909" lon="4.24536">
        <ele>153</ele>
        <time>2010-01-01T01:07:23Z</time>
      </trkpt>
      <trkpt lat="44.19932" lon="4.2455">
        <ele>153</ele>
        <time>2010-01-01T01:07:33Z</time>
      </trkpt>
      <trkpt lat="44.19961" lon="4.24561">
        <ele>153</ele>
        <time>2010-01-01T01:07:45Z</time>
      </trkpt>
      <trkpt lat="44.19991" lon="4.24564">
        <ele>153</ele>
        <time>2010-01-01T01:07:57Z</time>
      </trkpt>
      <trkpt lat="44.20018" lon="4.24573">
        <ele>152</ele>
        <time>2010-01-01T01:08:08Z</time>
      </trkpt>
      <trkpt lat="44.20043" lon="4.24584">
        <ele>152</ele>
        <time>2010-01-01T01:08:19Z</time>
      </trkpt>
      <trkpt lat="44.2007" lon="4.24595">
        <ele>152</ele>
        <time>2010-01-01T01:08:30Z</time>
      </trkpt>
      <trkpt lat="44.20098" lon="4.24608">
        <ele>152</ele>
        <time>2010-01-01T01:08:42Z</time>
      </trkpt>
      <trkpt lat="44.20126" lon="4.24623">
        <ele>152</ele>
        <time>2010-01-01T01:08:54Z</time>
      </trkpt>
      <trkpt lat="44.20154" lon="4.24638">
        <ele>152</ele>
        <time>2010-01-01T01:09:06Z</time>
      </trkpt>
      <trkpt lat="44.20183" lon="4.24652">
        <ele>151</ele>
        <time>2010-01-01T01:09:18Z</time>
      </trkpt>
      <trkpt lat="44.20208" lon="4.24673">
        <ele>150</ele>
        <time>2010-01-01T01:09:30Z</time>
      </trkpt>
      <trkpt lat="44.2023" lon="4.24698">
        <ele>150</ele>
        <time>2010-01-01T01:09:41Z</time>
      </trkpt>
      <trkpt lat="44.20254" lon="4.24719">
        <ele>149</ele>
        <time>2010-01-01T01:09:52Z</time>
      </trkpt>
      <trkpt lat="44.20277" lon="4.24739">
        <ele>149</ele>
        <time>2010-01-01T01:10:03Z</time>
      </trkpt>
      <trkpt lat="44.20301" lon="4.24758">
        <ele>149</ele>
        <time>2010-01-01T01:10:14Z</time>
      </trkpt>
      <trkpt lat="44.20325" lon="4.24779">
        <ele>149</ele>
        <time>2010-01-01T01:10:26Z</time>
      </trkpt>
      <trkpt lat="44.20351" lon="4.24798">
        <ele>149</ele>
        <time>2010-01-01T01:10:37Z</time>
      </trkpt>
      <trkpt lat="44.20376" lon="4.24818">
        <ele>149</ele>
        <time>2010-01-01T01:10:49Z</time>
      </trkpt>
      <trkpt lat="44.20402" lon="4.24836">
        <ele>149</ele>
        <time>2010-01-01T01:11:00Z</time>
      </trkpt>
      <trkpt lat="44.20408" lon="4.24858">
        <ele>149</ele>
        <time>2010-01-01T01:11:07Z</time>
      </trkpt>
      <trkpt lat="44.20399" lon="4.24879">
        <ele>149</ele>
        <time>2010-01-01T01:11:14Z</time>
      </trkpt>
      <trkpt lat="44.20396" lon="4.24899">
        <ele>149</ele>
        <time>2010-01-01T01:11:20Z</time>
      </trkpt>
      <trkpt lat="44.20398" lon="4.2492">
        <ele>149</ele>
        <time>2010-01-01T01:11:26Z</time>
      </trkpt>
      <trkpt lat="44.20399" lon="4.24943">
        <ele>149</ele>
        <time>2010-01-01T01:11:33Z</time>
      </trkpt>
      <trkpt lat="44.20401" lon="4.24965">
        <ele>150</ele>
        <time>2010-01-01T01:11:39Z</time>
      </trkpt>
      <trkpt lat="44.20402" lon="4.24987">
        <ele>151</ele>
        <time>2010-01-01T01:11:45Z</time>
      </trkpt>
      <trkpt lat="44.20404" lon="4.25005">
        <ele>153</ele>
        <time>2010-01-01T01:11:51Z</time>
      </trkpt>
      <trkpt lat="44.20404" lon="4.25022">
        <ele>155</ele>
        <time>2010-01-01T01:11:56Z</time>
      </trkpt>
      <trkpt lat="44.20405" lon="4.25039">
        <ele>156</ele>
        <time>2010-01-01T01:12:00Z</time>
      </trkpt>
      <trkpt lat="44.20405" lon="4.25055">
        <ele>157</ele>
        <time>2010-01-01T01:12:05Z</time>
      </trkpt>
      <trkpt lat="44.20406" lon="4.25072">
        <ele>158</ele>
        <time>2010-01-01T01:12:10Z</time>
      </trkpt>
      <trkpt lat="44.20407" lon="4.25088">
        <ele>159</ele>
        <time>2010-01-01T01:12:14Z</time>
      </trkpt>
      <trkpt lat="44.20406" lon="4.25105">
        <ele>160</ele>
        <time>2010-01-01T01:12:19Z</time>
      </trkpt>
      <trkpt lat="44.20405" lon="4.25122">
        <ele>161</ele>
        <time>2010-01-01T01:12:24Z</time>
      </trkpt>
      <trkpt lat="44.20404" lon="4.25138">
        <ele>163</ele>
        <time>2010-01-01T01:12:29Z</time>
      </trkpt>
      <trkpt lat="44.20404" lon="4.25154">
        <ele>164</ele>
        <time>2010-01-01T01:12:33Z</time>
      </trkpt>
      <trkpt lat="44.20403" lon="4.2517">
        <ele>165</ele>
        <time>2010-01-01T01:12:38Z</time>
      </trkpt>
      <trkpt lat="44.20399" lon="4.25187">
        <ele>166</ele>
        <time>2010-01-01T01:12:43Z</time>
      </trkpt>
      <trkpt lat="44.20391" lon="4.25202">
        <ele>167</ele>
        <time>2010-01-01T01:12:49Z</time>
      </trkpt>
      <trkpt lat="44.2038" lon="4.25216">
        <ele>168</ele>
        <time>2010-01-01T01:12:55Z</time>
      </trkpt>
      <trkpt lat="44.20368" lon="4.25228">
        <ele>168</ele>
        <time>2010-01-01T01:13:01Z</time>
      </trkpt>
      <trkpt lat="44.20357" lon="4.25242">
        <ele>169</ele>
        <time>2010-01-01T01:13:06Z</time>
      </trkpt>
      <trkpt lat="44.20347" lon="4.25256">
        <ele>169</ele>
        <time>2010-01-01T01:13:12Z</time>
      </trkpt>
      <trkpt lat="44.20336" lon="4.25267">
        <ele>170</ele>
        <time>2010-01-01T01:13:18Z</time>
      </trkpt>
      <trkpt lat="44.20327" lon="4.25278">
        <ele>171</ele>
        <time>2010-01-01T01:13:22Z</time>
      </trkpt>
      <trkpt lat="44.20327" lon="4.25289">
        <ele>172</ele>
        <time>2010-01-01T01:13:26Z</time>
      </trkpt>
      <trkpt lat="44.20341" lon="4.25299">
        <ele>173</ele>
        <time>2010-01-01T01:13:32Z</time>
      </trkpt>
      <trkpt lat="44.20363" lon="4.25315">
        <ele>173</ele>
        <time>2010-01-01T01:13:42Z</time>
      </trkpt>
      <trkpt lat="44.20385" lon="4.25331">
        <ele>171</ele>
        <time>2010-01-01T01:13:52Z</time>
      </trkpt>
      <trkpt lat="44.20413" lon="4.2532">
        <ele>168</ele>
        <time>2010-01-01T01:14:03Z</time>
      </trkpt>
      <trkpt lat="44.20435" lon="4.25297">
        <ele>167</ele>
        <time>2010-01-01T01:14:15Z</time>
      </trkpt>
      <trkpt lat="44.20455" lon="4.25282">
        <ele>166</ele>
        <time>2010-01-01T01:14:24Z</time>
      </trkpt>
      <trkpt lat="44.20474" lon="4.25291">
        <ele>166</ele>
        <time>2010-01-01T01:14:32Z</time>
      </trkpt>
      <trkpt lat="44.20487" lon="4.25312">
        <ele>167</ele>
        <time>2010-01-01T01:14:40Z</time>
      </trkpt>
      <trkpt lat="44.20502" lon="4.25346">
        <ele>167</ele>
        <time>2010-01-01T01:14:51Z</time>
      </trkpt>
      <trkpt lat="44.20514" lon="4.25388">
        <ele>167</ele>
        <time>2010-01-01T01:15:04Z</time>
      </trkpt>
      <trkpt lat="44.20525" lon="4.25436">
        <ele>164</ele>
        <time>2010-01-01T01:15:19Z</time>
      </trkpt>
      <trkpt lat="44.20526" lon="4.25485">
        <ele>162</ele>
        <time>2010-01-01T01:15:33Z</time>
      </trkpt>
      <trkpt lat="44.20522" lon="4.25519">
        <ele>162</ele>
        <time>2010-01-01T01:15:42Z</time>
      </trkpt>
      <trkpt lat="44.20516" lon="4.25539">
        <ele>162</ele>
        <time>2010-01-01T01:15:49Z</time>
      </trkpt>
      <trkpt lat="44.20513" lon="4.25555">
        <ele>164</ele>
        <time>2010-01-01T01:15:53Z</time>
      </trkpt>
      <trkpt lat="44.20513" lon="4.2557">
        <ele>165</ele>
        <time>2010-01-01T01:15:58Z</time>
      </trkpt>
      <trkpt lat="44.20512" lon="4.25585">
        <ele>167</ele>
        <time>2010-01-01T01:16:02Z</time>
      </trkpt>
      <trkpt lat="44.20514" lon="4.25598">
        <ele>169</ele>
        <time>2010-01-01T01:16:06Z</time>
      </trkpt>
      <trkpt lat="44.20515" lon="4.2561">
        <ele>170</ele>
        <time>2010-01-01T01:16:09Z</time>
      </trkpt>
      <trkpt lat="44.20516" lon="4.25622">
        <ele>172</ele>
        <time>2010-01-01T01:16:13Z</time>
      </trkpt>
      <trkpt lat="44.20516" lon="4.25634">
        <ele>173</ele>
        <time>2010-01-01T01:16:16Z</time>
      </trkpt>
      <trkpt lat="44.20517" lon="4.25644">
        <ele>175</ele>
        <time>2010-01-01T01:16:19Z</time>
      </trkpt>
      <trkpt lat="44.20516" lon="4.25655">
        <ele>176</ele>
        <time>2010-01-01T01:16:22Z</time>
      </trkpt>
      <trkpt lat="44.20519" lon="4.25664">
        <ele>177</ele>
        <time>2010-01-01T01:16:25Z</time>
      </trkpt>
      <trkpt lat="44.20533" lon="4.25673">
        <ele>177</ele>
        <time>2010-01-01T01:16:31Z</time>
      </trkpt>
      <trkpt lat="44.20554" lon="4.25676">
        <ele>177</ele>
        <time>2010-01-01T01:16:40Z</time>
      </trkpt>
      <trkpt lat="44.2057" lon="4.25683">
        <ele>173</ele>
        <time>2010-01-01T01:16:47Z</time>
      </trkpt>
      <trkpt lat="44.20582" lon="4.25698">
        <ele>172</ele>
        <time>2010-01-01T01:16:53Z</time>
      </trkpt>
      <trkpt lat="44.20599" lon="4.25707">
        <ele>171</ele>
        <time>2010-01-01T01:17:01Z</time>
      </trkpt>
      <trkpt lat="44.20612" lon="4.25717">
        <ele>170</ele>
        <time>2010-01-01T01:17:06Z</time>
      </trkpt>
      <trkpt lat="44.20612" lon="4.25735">
        <ele>169</ele>
        <time>2010-01-01T01:17:11Z</time>
      </trkpt>
      <trkpt lat="44.20616" lon="4.25758">
        <ele>169</ele>
        <time>2010-01-01T01:17:18Z</time>
      </trkpt>
      <trkpt lat="44.20621" lon="4.25778">
        <ele>170</ele>
        <time>2010-01-01T01:17:24Z</time>
      </trkpt>
      <trkpt lat="44.20627" lon="4.25795">
        <ele>171</ele>
        <time>2010-01-01T01:17:30Z</time>
      </trkpt>
      <trkpt lat="44.20634" lon="4.25809">
        <ele>173</ele>
        <time>2010-01-01T01:17:35Z</time>
      </trkpt>
      <trkpt lat="44.20642" lon="4.25819">
        <ele>175</ele>
        <time>2010-01-01T01:17:39Z</time>
      </trkpt>
      <trkpt lat="44.20652" lon="4.25827">
        <ele>176</ele>
        <time>2010-01-01T01:17:44Z</time>
      </trkpt>
      <trkpt lat="44.20656" lon="4.25837">
        <ele>177</ele>
        <time>2010-01-01T01:17:47Z</time>
      </trkpt>
      <trkpt lat="44.2065" lon="4.25847">
        <ele>179</ele>
        <time>2010-01-01T01:17:50Z</time>
      </trkpt>
      <trkpt lat="44.20644" lon="4.25856">
        <ele>180</ele>
        <time>2010-01-01T01:17:54Z</time>
      </trkpt>
      <trkpt lat="44.20637" lon="4.25859">
        <ele>181</ele>
        <time>2010-01-01T01:17:57Z</time>
      </trkpt>
      <trkpt lat="44.20631" lon="4.25862">
        <ele>183</ele>
        <time>2010-01-01T01:17:59Z</time>
      </trkpt>
      <trkpt lat="44.20629" lon="4.2587">
        <ele>185</ele>
        <time>2010-01-01T01:18:02Z</time>
      </trkpt>
      <trkpt lat="44.20626" lon="4.25878">
        <ele>187</ele>
        <time>2010-01-01T01:18:05Z</time>
      </trkpt>
      <trkpt lat="44.20621" lon="4.25884">
        <ele>188</ele>
        <time>2010-01-01T01:18:07Z</time>
      </trkpt>
      <trkpt lat="44.20614" lon="4.25888">
        <ele>189</ele>
        <time>2010-01-01T01:18:10Z</time>
      </trkpt>
      <trkpt lat="44.20611" lon="4.2589">
        <ele>190</ele>
        <time>2010-01-01T01:18:12Z</time>
      </trkpt>
      <trkpt lat="44.20605" lon="4.25896">
        <ele>190</ele>
        <time>2010-01-01T01:18:15Z</time>
      </trkpt>
      <trkpt lat="44.20599" lon="4.25903">
        <ele>191</ele>
        <time>2010-01-01T01:18:18Z</time>
      </trkpt>
      <trkpt lat="44.20593" lon="4.25909">
        <ele>192</ele>
        <time>2010-01-01T01:18:21Z</time>
      </trkpt>
      <trkpt lat="44.20587" lon="4.25912">
        <ele>193</ele>
        <time>2010-01-01T01:18:23Z</time>
      </trkpt>
      <trkpt lat="44.20583" lon="4.25911">
        <ele>194</ele>
        <time>2010-01-01T01:18:25Z</time>
      </trkpt>
      <trkpt lat="44.20578" lon="4.25911">
        <ele>195</ele>
        <time>2010-01-01T01:18:27Z</time>
      </trkpt>
      <trkpt lat="44.20573" lon="4.25906">
        <ele>195</ele>
        <time>2010-01-01T01:18:29Z</time>
      </trkpt>
      <trkpt lat="44.20566" lon="4.259">
        <ele>196</ele>
        <time>2010-01-01T01:18:32Z</time>
      </trkpt>
      <trkpt lat="44.20559" lon="4.259">
        <ele>197</ele>
        <time>2010-01-01T01:18:35Z</time>
      </trkpt>
      <trkpt lat="44.20553" lon="4.25905">
        <ele>198</ele>
        <time>2010-01-01T01:18:38Z</time>
      </trkpt>
      <trkpt lat="44.20548" lon="4.25914">
        <ele>199</ele>
        <time>2010-01-01T01:18:41Z</time>
      </trkpt>
      <trkpt lat="44.20541" lon="4.25918">
        <ele>201</ele>
        <time>2010-01-01T01:18:44Z</time>
      </trkpt>
      <trkpt lat="44.20534" lon="4.25924">
        <ele>202</ele>
        <time>2010-01-01T01:18:48Z</time>
      </trkpt>
      <trkpt lat="44.20528" lon="4.25932">
        <ele>203</ele>
        <time>2010-01-01T01:18:51Z</time>
      </trkpt>
      <trkpt lat="44.20519" lon="4.25939">
        <ele>204</ele>
        <time>2010-01-01T01:18:55Z</time>
      </trkpt>
      <trkpt lat="44.2051" lon="4.25945">
        <ele>205</ele>
        <time>2010-01-01T01:18:59Z</time>
      </trkpt>
      <trkpt lat="44.205" lon="4.25951">
        <ele>205</ele>
        <time>2010-01-01T01:19:04Z</time>
      </trkpt>
      <trkpt lat="44.2049" lon="4.25957">
        <ele>206</ele>
        <time>2010-01-01T01:19:08Z</time>
      </trkpt>
      <trkpt lat="44.2048" lon="4.25963">
        <ele>207</ele>
        <time>2010-01-01T01:19:12Z</time>
      </trkpt>
      <trkpt lat="44.20468" lon="4.25963">
        <ele>208</ele>
        <time>2010-01-01T01:19:17Z</time>
      </trkpt>
      <trkpt lat="44.20456" lon="4.25963">
        <ele>209</ele>
        <time>2010-01-01T01:19:22Z</time>
      </trkpt>
      <trkpt lat="44.20445" lon="4.25962">
        <ele>210</ele>
        <time>2010-01-01T01:19:27Z</time>
      </trkpt>
      <trkpt lat="44.20434" lon="4.25964">
        <ele>211</ele>
        <time>2010-01-01T01:19:31Z</time>
      </trkpt>
      <trkpt lat="44.20425" lon="4.25972">
        <ele>212</ele>
        <time>2010-01-01T01:19:35Z</time>
      </trkpt>
      <trkpt lat="44.2042" lon="4.25986">
        <ele>213</ele>
        <time>2010-01-01T01:19:40Z</time>
      </trkpt>
      <trkpt lat="44.20413" lon="4.26001">
        <ele>213</ele>
        <time>2010-01-01T01:19:45Z</time>
      </trkpt>
      <trkpt lat="44.20404" lon="4.26016">
        <ele>213</ele>
        <time>2010-01-01T01:19:50Z</time>
      </trkpt>
      <trkpt lat="44.20394" lon="4.26038">
        <ele>211</ele>
        <time>2010-01-01T01:19:58Z</time>
      </trkpt>
      <trkpt lat="44.20381" lon="4.26073">
        <ele>209</ele>
        <time>2010-01-01T01:20:09Z</time>
      </trkpt>
      <trkpt lat="44.2037" lon="4.26114">
        <ele>207</ele>
        <time>2010-01-01T01:20:22Z</time>
      </trkpt>
      <trkpt lat="44.20352" lon="4.26141">
        <ele>205</ele>
        <time>2010-01-01T01:20:32Z</time>
      </trkpt>
      <trkpt lat="44.2034" lon="4.26158">
        <ele>204</ele>
        <time>2010-01-01T01:20:39Z</time>
      </trkpt>
      <trkpt lat="44.20338" lon="4.26181">
        <ele>204</ele>
        <time>2010-01-01T01:20:46Z</time>
      </trkpt>
      <trkpt lat="44.20345" lon="4.26207">
        <ele>204</ele>
        <time>2010-01-01T01:20:54Z</time>
      </trkpt>
      <trkpt lat="44.20352" lon="4.26232">
        <ele>205</ele>
        <time>2010-01-01T01:21:01Z</time>
      </trkpt>
      <trkpt lat="44.20356" lon="4.26257">
        <ele>206</ele>
        <time>2010-01-01T01:21:09Z</time>
      </trkpt>
      <trkpt lat="44.20356" lon="4.2628">
        <ele>207</ele>
        <time>2010-01-01T01:21:15Z</time>
      </trkpt>
      <trkpt lat="44.20357" lon="4.26304">
        <ele>209</ele>
        <time>2010-01-01T01:21:22Z</time>
      </trkpt>
      <trkpt lat="44.20359" lon="4.26329">
        <ele>210</ele>
        <time>2010-01-01T01:21:29Z</time>
      </trkpt>
      <trkpt lat="44.20362" lon="4.26353">
        <ele>210</ele>
        <time>2010-01-01T01:21:37Z</time>
      </trkpt>
      <trkpt lat="44.20365" lon="4.26377">
        <ele>211</ele>
        <time>2010-01-01T01:21:43Z</time>
      </trkpt>
      <trkpt lat="44.20368" lon="4.26401">
        <ele>212</ele>
        <time>2010-01-01T01:21:51Z</time>
      </trkpt>
      <trkpt lat="44.2037" lon="4.26428">
        <ele>212</ele>
        <time>2010-01-01T01:21:58Z</time>
      </trkpt>
      <trkpt lat="44.20375" lon="4.26457">
        <ele>212</ele>
        <time>2010-01-01T01:22:07Z</time>
      </trkpt>
      <trkpt lat="44.20376" lon="4.26483">
        <ele>212</ele>
        <time>2010-01-01T01:22:14Z</time>
      </trkpt>
      <trkpt lat="44.20371" lon="4.26506">
        <ele>211</ele>
        <time>2010-01-01T01:22:21Z</time>
      </trkpt>
      <trkpt lat="44.2037" lon="4.26533">
        <ele>209</ele>
        <time>2010-01-01T01:22:29Z</time>
      </trkpt>
      <trkpt lat="44.20364" lon="4.26562">
        <ele>207</ele>
        <time>2010-01-01T01:22:38Z</time>
      </trkpt>
      <trkpt lat="44.20358" lon="4.26595">
        <ele>206</ele>
        <time>2010-01-01T01:22:47Z</time>
      </trkpt>
      <trkpt lat="44.20353" lon="4.26614">
        <ele>204</ele>
        <time>2010-01-01T01:22:53Z</time>
      </trkpt>
      <trkpt lat="44.20352" lon="4.26631">
        <ele>203</ele>
        <time>2010-01-01T01:22:58Z</time>
      </trkpt>
      <trkpt lat="44.20351" lon="4.26649">
        <ele>203</ele>
        <time>2010-01-01T01:23:03Z</time>
      </trkpt>
      <trkpt lat="44.20348" lon="4.26662">
        <ele>203</ele>
        <time>2010-01-01T01:23:07Z</time>
      </trkpt>
      <trkpt lat="44.20349" lon="4.26673">
        <ele>203</ele>
        <time>2010-01-01T01:23:10Z</time>
      </trkpt>
      <trkpt lat="44.20352" lon="4.26687">
        <ele>203</ele>
        <time>2010-01-01T01:23:14Z</time>
      </trkpt>
      <trkpt lat="44.20351" lon="4.267">
        <ele>203</ele>
        <time>2010-01-01T01:23:18Z</time>
      </trkpt>
      <trkpt lat="44.20354" lon="4.26712">
        <ele>203</ele>
        <time>2010-01-01T01:23:22Z</time>
      </trkpt>
      <trkpt lat="44.20361" lon="4.26721">
        <ele>203</ele>
        <time>2010-01-01T01:23:26Z</time>
      </trkpt>
      <trkpt lat="44.20367" lon="4.26733">
        <ele>203</ele>
        <time>2010-01-01T01:23:30Z</time>
      </trkpt>
      <trkpt lat="44.20377" lon="4.26745">
        <ele>203</ele>
        <time>2010-01-01T01:23:35Z</time>
      </trkpt>
      <trkpt lat="44.20387" lon="4.26758">
        <ele>203</ele>
        <time>2010-01-01T01:23:40Z</time>
      </trkpt>
      <trkpt lat="44.20395" lon="4.26768">
        <ele>203</ele>
        <time>2010-01-01T01:23:45Z</time>
      </trkpt>
      <trkpt lat="44.204" lon="4.2678">
        <ele>203</ele>
        <time>2010-01-01T01:23:49Z</time>
      </trkpt>
      <trkpt lat="44.20406" lon="4.26797">
        <ele>203</ele>
        <time>2010-01-01T01:23:54Z</time>
      </trkpt>
      <trkpt lat="44.20412" lon="4.2681">
        <ele>203</ele>
        <time>2010-01-01T01:23:58Z</time>
      </trkpt>
      <trkpt lat="44.20419" lon="4.26815">
        <ele>204</ele>
        <time>2010-01-01T01:24:02Z</time>
      </trkpt>
      <trkpt lat="44.20428" lon="4.26813">
        <ele>205</ele>
        <time>2010-01-01T01:24:06Z</time>
      </trkpt>
      <trkpt lat="44.20435" lon="4.2682">
        <ele>207</ele>
        <time>2010-01-01T01:24:09Z</time>
      </trkpt>
      <trkpt lat="44.20445" lon="4.26824">
        <ele>208</ele>
        <time>2010-01-01T01:24:13Z</time>
      </trkpt>
      <trkpt lat="44.20452" lon="4.26831">
        <ele>209</ele>
        <time>2010-01-01T01:24:16Z</time>
      </trkpt>
      <trkpt lat="44.20459" lon="4.26839">
        <ele>209</ele>
        <time>2010-01-01T01:24:20Z</time>
      </trkpt>
      <trkpt lat="44.20465" lon="4.26846">
        <ele>211</ele>
        <time>2010-01-01T01:24:23Z</time>
      </trkpt>
      <trkpt lat="44.20474" lon="4.26857">
        <ele>211</ele>
        <time>2010-01-01T01:24:28Z</time>
      </trkpt>
      <trkpt lat="44.20477" lon="4.26865">
        <ele>212</ele>
        <time>2010-01-01T01:24:31Z</time>
      </trkpt>
      <trkpt lat="44.20484" lon="4.26873">
        <ele>213</ele>
        <time>2010-01-01T01:24:34Z</time>
      </trkpt>
      <trkpt lat="44.20489" lon="4.26888">
        <ele>213</ele>
        <time>2010-01-01T01:24:39Z</time>
      </trkpt>
      <trkpt lat="44.2049" lon="4.26901">
        <ele>213</ele>
        <time>2010-01-01T01:24:43Z</time>
      </trkpt>
      <trkpt lat="44.20488" lon="4.26918">
        <ele>212</ele>
        <time>2010-01-01T01:24:48Z</time>
      </trkpt>
      <trkpt lat="44.20481" lon="4.26931">
        <ele>210</ele>
        <time>2010-01-01T01:24:52Z</time>
      </trkpt>
      <trkpt lat="44.20471" lon="4.26934">
        <ele>210</ele>
        <time>2010-01-01T01:24:56Z</time>
      </trkpt>
      <trkpt lat="44.2046" lon="4.26939">
        <ele>210</ele>
        <time>2010-01-01T01:25:01Z</time>
      </trkpt>
      <trkpt lat="44.2045" lon="4.26941">
        <ele>210</ele>
        <time>2010-01-01T01:25:05Z</time>
      </trkpt>
      <trkpt lat="44.20443" lon="4.26943">
        <ele>211</ele>
        <time>2010-01-01T01:25:08Z</time>
      </trkpt>
      <trkpt lat="44.20433" lon="4.26945">
        <ele>211</ele>
        <time>2010-01-01T01:25:12Z</time>
      </trkpt>
      <trkpt lat="44.20419" lon="4.26946">
        <ele>211</ele>
        <time>2010-01-01T01:25:18Z</time>
      </trkpt>
      <trkpt lat="44.20408" lon="4.26948">
        <ele>212</ele>
        <time>2010-01-01T01:25:22Z</time>
      </trkpt>
      <trkpt lat="44.20397" lon="4.2695">
        <ele>212</ele>
        <time>2010-01-01T01:25:27Z</time>
      </trkpt>
      <trkpt lat="44.20383" lon="4.26953">
        <ele>213</ele>
        <time>2010-01-01T01:25:32Z</time>
      </trkpt>
      <trkpt lat="44.20367" lon="4.26957">
        <ele>213</ele>
        <time>2010-01-01T01:25:39Z</time>
      </trkpt>
      <trkpt lat="44.20354" lon="4.26959">
        <ele>214</ele>
        <time>2010-01-01T01:25:44Z</time>
      </trkpt>
      <trkpt lat="44.20339" lon="4.26963">
        <ele>214</ele>
        <time>2010-01-01T01:25:50Z</time>
      </trkpt>
      <trkpt lat="44.20325" lon="4.26968">
        <ele>214</ele>
        <time>2010-01-01T01:25:56Z</time>
      </trkpt>
      <trkpt lat="44.20314" lon="4.26973">
        <ele>215</ele>
        <time>2010-01-01T01:26:01Z</time>
      </trkpt>
      <trkpt lat="44.20302" lon="4.26981">
        <ele>215</ele>
        <time>2010-01-01T01:26:06Z</time>
      </trkpt>
      <trkpt lat="44.20297" lon="4.26995">
        <ele>217</ele>
        <time>2010-01-01T01:26:10Z</time>
      </trkpt>
      <trkpt lat="44.20291" lon="4.27008">
        <ele>218</ele>
        <time>2010-01-01T01:26:15Z</time>
      </trkpt>
      <trkpt lat="44.20286" lon="4.2702">
        <ele>219</ele>
        <time>2010-01-01T01:26:19Z</time>
      </trkpt>
      <trkpt lat="44.20285" lon="4.27036">
        <ele>220</ele>
        <time>2010-01-01T01:26:23Z</time>
      </trkpt>
      <trkpt lat="44.20285" lon="4.27053">
        <ele>221</ele>
        <time>2010-01-01T01:26:28Z</time>
      </trkpt>
      <trkpt lat="44.20287" lon="4.27069">
        <ele>222</ele>
        <time>2010-01-01T01:26:33Z</time>
      </trkpt>
      <trkpt lat="44.20288" lon="4.27086">
        <ele>223</ele>
        <time>2010-01-01T01:26:38Z</time>
      </trkpt>
      <trkpt lat="44.20285" lon="4.271">
        <ele>224</ele>
        <time>2010-01-01T01:26:42Z</time>
      </trkpt>
      <trkpt lat="44.20278" lon="4.2711">
        <ele>225</ele>
        <time>2010-01-01T01:26:46Z</time>
      </trkpt>
      <trkpt lat="44.20269" lon="4.2712">
        <ele>225</ele>
        <time>2010-01-01T01:26:51Z</time>
      </trkpt>
      <trkpt lat="44.20261" lon="4.2713">
        <ele>226</ele>
        <time>2010-01-01T01:26:55Z</time>
      </trkpt>
      <trkpt lat="44.20252" lon="4.2714">
        <ele>228</ele>
        <time>2010-01-01T01:27:00Z</time>
      </trkpt>
      <trkpt lat="44.20243" lon="4.2715">
        <ele>229</ele>
        <time>2010-01-01T01:27:05Z</time>
      </trkpt>
      <trkpt lat="44.20233" lon="4.27162">
        <ele>230</ele>
        <time>2010-01-01T01:27:10Z</time>
      </trkpt>
      <trkpt lat="44.20222" lon="4.27174">
        <ele>232</ele>
        <time>2010-01-01T01:27:15Z</time>
      </trkpt>
      <trkpt lat="44.20211" lon="4.27184">
        <ele>233</ele>
        <time>2010-01-01T01:27:20Z</time>
      </trkpt>
      <trkpt lat="44.202" lon="4.27193">
        <ele>233</ele>
        <time>2010-01-01T01:27:25Z</time>
      </trkpt>
      <trkpt lat="44.2019" lon="4.27201">
        <ele>234</ele>
        <time>2010-01-01T01:27:30Z</time>
      </trkpt>
      <trkpt lat="44.2018" lon="4.27208">
        <ele>235</ele>
        <time>2010-01-01T01:27:35Z</time>
      </trkpt>
      <trkpt lat="44.2017" lon="4.27213">
        <ele>236</ele>
        <time>2010-01-01T01:27:39Z</time>
      </trkpt>
      <trkpt lat="44.20159" lon="4.27218">
        <ele>237</ele>
        <time>2010-01-01T01:27:43Z</time>
      </trkpt>
      <trkpt lat="44.20148" lon="4.27216">
        <ele>238</ele>
        <time>2010-01-01T01:27:48Z</time>
      </trkpt>
      <trkpt lat="44.20145" lon="4.27204">
        <ele>239</ele>
        <time>2010-01-01T01:27:52Z</time>
      </trkpt>
      <trkpt lat="44.20153" lon="4.27195">
        <ele>240</ele>
        <time>2010-01-01T01:27:56Z</time>
      </trkpt>
      <trkpt lat="44.20165" lon="4.27189">
        <ele>241</ele>
        <time>2010-01-01T01:28:01Z</time>
      </trkpt>
      <trkpt lat="44.20175" lon="4.27175">
        <ele>242</ele>
        <time>2010-01-01T01:28:07Z</time>
      </trkpt>
      <trkpt lat="44.20185" lon="4.27158">
        <ele>243</ele>
        <time>2010-01-01T01:28:13Z</time>
      </trkpt>
      <trkpt lat="44.20194" lon="4.27137">
        <ele>243</ele>
        <time>2010-01-01T01:28:20Z</time>
      </trkpt>
      <trkpt lat="44.20196" lon="4.27114">
        <ele>244</ele>
        <time>2010-01-01T01:28:27Z</time>
      </trkpt>
      <trkpt lat="44.20188" lon="4.27098">
        <ele>245</ele>
        <time>2010-01-01T01:28:32Z</time>
      </trkpt>
      <trkpt lat="44.20175" lon="4.27086">
        <ele>245</ele>
        <time>2010-01-01T01:28:38Z</time>
      </trkpt>
      <trkpt lat="44.2016" lon="4.27071">
        <ele>245</ele>
        <time>2010-01-01T01:28:46Z</time>
      </trkpt>
      <trkpt lat="44.20158" lon="4.27044">
        <ele>245</ele>
        <time>2010-01-01T01:28:54Z</time>
      </trkpt>
      <trkpt lat="44.20158" lon="4.27016">
        <ele>245</ele>
        <time>2010-01-01T01:29:02Z</time>
      </trkpt>
      <trkpt lat="44.20143" lon="4.26998">
        <ele>243</ele>
        <time>2010-01-01T01:29:10Z</time>
      </trkpt>
      <trkpt lat="44.20122" lon="4.26991">
        <ele>243</ele>
        <time>2010-01-01T01:29:18Z</time>
      </trkpt>
      <trkpt lat="44.20101" lon="4.26989">
        <ele>243</ele>
        <time>2010-01-01T01:29:27Z</time>
      </trkpt>
      <trkpt lat="44.20087" lon="4.26974">
        <ele>243</ele>
        <time>2010-01-01T01:29:34Z</time>
      </trkpt>
      <trkpt lat="44.20095" lon="4.26949">
        <ele>243</ele>
        <time>2010-01-01T01:29:42Z</time>
      </trkpt>
      <trkpt lat="44.201" lon="4.26925">
        <ele>243</ele>
        <time>2010-01-01T01:29:49Z</time>
      </trkpt>
      <trkpt lat="44.20096" lon="4.26899">
        <ele>243</ele>
        <time>2010-01-01T01:29:56Z</time>
      </trkpt>
      <trkpt lat="44.20094" lon="4.26871">
        <ele>244</ele>
        <time>2010-01-01T01:30:05Z</time>
      </trkpt>
      <trkpt lat="44.20085" lon="4.26844">
        <ele>244</ele>
        <time>2010-01-01T01:30:13Z</time>
      </trkpt>
      <trkpt lat="44.20088" lon="4.26817">
        <ele>244</ele>
        <time>2010-01-01T01:30:21Z</time>
      </trkpt>
      <trkpt lat="44.20098" lon="4.26793">
        <ele>244</ele>
        <time>2010-01-01T01:30:29Z</time>
      </trkpt>
      <trkpt lat="44.20102" lon="4.26767">
        <ele>244</ele>
        <time>2010-01-01T01:30:36Z</time>
      </trkpt>
      <trkpt lat="44.20103" lon="4.2674">
        <ele>246</ele>
        <time>2010-01-01T01:30:44Z</time>
      </trkpt>
      <trkpt lat="44.20104" lon="4.26713">
        <ele>247</ele>
        <time>2010-01-01T01:30:52Z</time>
      </trkpt>
      <trkpt lat="44.20106" lon="4.26684">
        <ele>247</ele>
        <time>2010-01-01T01:31:00Z</time>
      </trkpt>
      <trkpt lat="44.20113" lon="4.26655">
        <ele>248</ele>
        <time>2010-01-01T01:31:09Z</time>
      </trkpt>
      <trkpt lat="44.20119" lon="4.26627">
        <ele>248</ele>
        <time>2010-01-01T01:31:17Z</time>
      </trkpt>
      <trkpt lat="44.20123" lon="4.26595">
        <ele>249</ele>
        <time>2010-01-01T01:31:27Z</time>
      </trkpt>
      <trkpt lat="44.2013" lon="4.26567">
        <ele>249</ele>
        <time>2010-01-01T01:31:35Z</time>
      </trkpt>
      <trkpt lat="44.20121" lon="4.26546">
        <ele>248</ele>
        <time>2010-01-01T01:31:42Z</time>
      </trkpt>
      <trkpt lat="44.201" lon="4.26548">
        <ele>248</ele>
        <time>2010-01-01T01:31:51Z</time>
      </trkpt>
      <trkpt lat="44.20075" lon="4.2655">
        <ele>246</ele>
        <time>2010-01-01T01:32:01Z</time>
      </trkpt>
      <trkpt lat="44.20048" lon="4.26547">
        <ele>244</ele>
        <time>2010-01-01T01:32:12Z</time>
      </trkpt>
      <trkpt lat="44.20024" lon="4.26536">
        <ele>244</ele>
        <time>2010-01-01T01:32:22Z</time>
      </trkpt>
      <trkpt lat="44.20006" lon="4.26559">
        <ele>243</ele>
        <time>2010-01-01T01:32:32Z</time>
      </trkpt>
      <trkpt lat="44.2" lon="4.26541">
        <ele>239</ele>
        <time>2010-01-01T01:32:37Z</time>
      </trkpt>
      <trkpt lat="44.20012" lon="4.26509">
        <ele>237</ele>
        <time>2010-01-01T01:32:48Z</time>
      </trkpt>
      <trkpt lat="44.20043" lon="4.26493">
        <ele>234</ele>
        <time>2010-01-01T01:33:01Z</time>
      </trkpt>
      <trkpt lat="44.20073" lon="4.26473">
        <ele>232</ele>
        <time>2010-01-01T01:33:14Z</time>
      </trkpt>
      <trkpt lat="44.20099" lon="4.26447">
        <ele>229</ele>
        <time>2010-01-01T01:33:27Z</time>
      </trkpt>
      <trkpt lat="44.20113" lon="4.26418">
        <ele>227</ele>
        <time>2010-01-01T01:33:37Z</time>
      </trkpt>
      <trkpt lat="44.20107" lon="4.26406">
        <ele>227</ele>
        <time>2010-01-01T01:33:41Z</time>
      </trkpt>
      <trkpt lat="44.20104" lon="4.26402">
        <ele>227</ele>
        <time>2010-01-01T01:33:43Z</time>
      </trkpt>
      <trkpt lat="44.20099" lon="4.26396">
        <ele>228</ele>
        <time>2010-01-01T01:33:46Z</time>
      </trkpt>
      <trkpt lat="44.20092" lon="4.26394">
        <ele>229</ele>
        <time>2010-01-01T01:33:49Z</time>
      </trkpt>
      <trkpt lat="44.20085" lon="4.26392">
        <ele>231</ele>
        <time>2010-01-01T01:33:51Z</time>
      </trkpt>
      <trkpt lat="44.20078" lon="4.2639">
        <ele>232</ele>
        <time>2010-01-01T01:33:54Z</time>
      </trkpt>
      <trkpt lat="44.20072" lon="4.26388">
        <ele>234</ele>
        <time>2010-01-01T01:33:57Z</time>
      </trkpt>
      <trkpt lat="44.20067" lon="4.26389">
        <ele>235</ele>
        <time>2010-01-01T01:33:59Z</time>
      </trkpt>
      <trkpt lat="44.20063" lon="4.26395">
        <ele>237</ele>
        <time>2010-01-01T01:34:01Z</time>
      </trkpt>
      <trkpt lat="44.20062" lon="4.26396">
        <ele>238</ele>
        <time>2010-01-01T01:34:02Z</time>
      </trkpt>
      <trkpt lat="44.20057" lon="4.26402">
        <ele>239</ele>
        <time>2010-01-01T01:34:04Z</time>
      </trkpt>
      <trkpt lat="44.20055" lon="4.26407">
        <ele>240</ele>
        <time>2010-01-01T01:34:06Z</time>
      </trkpt>
      <trkpt lat="44.20051" lon="4.2641">
        <ele>241</ele>
        <time>2010-01-01T01:34:08Z</time>
      </trkpt>
      <trkpt lat="44.20045" lon="4.2641">
        <ele>241</ele>
        <time>2010-01-01T01:34:10Z</time>
      </trkpt>
      <trkpt lat="44.20044" lon="4.26411">
        <ele>242</ele>
        <time>2010-01-01T01:34:10Z</time>
      </trkpt>
      <trkpt lat="44.20036" lon="4.26413">
        <ele>243</ele>
        <time>2010-01-01T01:34:14Z</time>
      </trkpt>
      <trkpt lat="44.20031" lon="4.26414">
        <ele>243</ele>
        <time>2010-01-01T01:34:16Z</time>
      </trkpt>
      <trkpt lat="44.20026" lon="4.26417">
        <ele>245</ele>
        <time>2010-01-01T01:34:18Z</time>
      </trkpt>
      <trkpt lat="44.20019" lon="4.26422">
        <ele>246</ele>
        <time>2010-01-01T01:34:21Z</time>
      </trkpt>
      <trkpt lat="44.20013" lon="4.26428">
        <ele>247</ele>
        <time>2010-01-01T01:34:24Z</time>
      </trkpt>
      <trkpt lat="44.20007" lon="4.26434">
        <ele>248</ele>
        <time>2010-01-01T01:34:27Z</time>
      </trkpt>
      <trkpt lat="44.19999" lon="4.26442">
        <ele>249</ele>
        <time>2010-01-01T01:34:31Z</time>
      </trkpt>
      <trkpt lat="44.19992" lon="4.2645">
        <ele>250</ele>
        <time>2010-01-01T01:34:35Z</time>
      </trkpt>
      <trkpt lat="44.19985" lon="4.26461">
        <ele>251</ele>
        <time>2010-01-01T01:34:39Z</time>
      </trkpt>
      <trkpt lat="44.19979" lon="4.26473">
        <ele>252</ele>
        <time>2010-01-01T01:34:43Z</time>
      </trkpt>
      <trkpt lat="44.19972" lon="4.26485">
        <ele>253</ele>
        <time>2010-01-01T01:34:48Z</time>
      </trkpt>
      <trkpt lat="44.19964" lon="4.26492">
        <ele>254</ele>
        <time>2010-01-01T01:34:51Z</time>
      </trkpt>
      <trkpt lat="44.19959" lon="4.26503">
        <ele>256</ele>
        <time>2010-01-01T01:34:55Z</time>
      </trkpt>
      <trkpt lat="44.19954" lon="4.26517">
        <ele>257</ele>
        <time>2010-01-01T01:34:59Z</time>
      </trkpt>
      <trkpt lat="44.19948" lon="4.26529">
        <ele>258</ele>
        <time>2010-01-01T01:35:04Z</time>
      </trkpt>
      <trkpt lat="44.19944" lon="4.26545">
        <ele>259</ele>
        <time>2010-01-01T01:35:08Z</time>
      </trkpt>
      <trkpt lat="44.19935" lon="4.26548">
        <ele>261</ele>
        <time>2010-01-01T01:35:12Z</time>
      </trkpt>
      <trkpt lat="44.19926" lon="4.26552">
        <ele>263</ele>
        <time>2010-01-01T01:35:16Z</time>
      </trkpt>
      <trkpt lat="44.19924" lon="4.26567">
        <ele>264</ele>
        <time>2010-01-01T01:35:20Z</time>
      </trkpt>
      <trkpt lat="44.19925" lon="4.26584">
        <ele>264</ele>
        <time>2010-01-01T01:35:25Z</time>
      </trkpt>
      <trkpt lat="44.19924" lon="4.26599">
        <ele>265</ele>
        <time>2010-01-01T01:35:29Z</time>
      </trkpt>
      <trkpt lat="44.19914" lon="4.26609">
        <ele>266</ele>
        <time>2010-01-01T01:35:35Z</time>
      </trkpt>
      <trkpt lat="44.19901" lon="4.26618">
        <ele>267</ele>
        <time>2010-01-01T01:35:40Z</time>
      </trkpt>
      <trkpt lat="44.1989" lon="4.26628">
        <ele>269</ele>
        <time>2010-01-01T01:35:45Z</time>
      </trkpt>
      <trkpt lat="44.19877" lon="4.26635">
        <ele>270</ele>
        <time>2010-01-01T01:35:51Z</time>
      </trkpt>
      <trkpt lat="44.19861" lon="4.26637">
        <ele>271</ele>
        <time>2010-01-01T01:35:57Z</time>
      </trkpt>
      <trkpt lat="44.19848" lon="4.26636">
        <ele>272</ele>
        <time>2010-01-01T01:36:02Z</time>
      </trkpt>
      <trkpt lat="44.19835" lon="4.26634">
        <ele>273</ele>
        <time>2010-01-01T01:36:08Z</time>
      </trkpt>
      <trkpt lat="44.1982" lon="4.26625">
        <ele>274</ele>
        <time>2010-01-01T01:36:14Z</time>
      </trkpt>
      <trkpt lat="44.19805" lon="4.26617">
        <ele>274</ele>
        <time>2010-01-01T01:36:21Z</time>
      </trkpt>
      <trkpt lat="44.19792" lon="4.26613">
        <ele>275</ele>
        <time>2010-01-01T01:36:26Z</time>
      </trkpt>
      <trkpt lat="44.19782" lon="4.26609">
        <ele>276</ele>
        <time>2010-01-01T01:36:30Z</time>
      </trkpt>
      <trkpt lat="44.19772" lon="4.26607">
        <ele>278</ele>
        <time>2010-01-01T01:36:34Z</time>
      </trkpt>
      <trkpt lat="44.19762" lon="4.26614">
        <ele>280</ele>
        <time>2010-01-01T01:36:39Z</time>
      </trkpt>
      <trkpt lat="44.19753" lon="4.2662">
        <ele>282</ele>
        <time>2010-01-01T01:36:43Z</time>
      </trkpt>
      <trkpt lat="44.19745" lon="4.26629">
        <ele>284</ele>
        <time>2010-01-01T01:36:47Z</time>
      </trkpt>
      <trkpt lat="44.19736" lon="4.26632">
        <ele>286</ele>
        <time>2010-01-01T01:36:51Z</time>
      </trkpt>
      <trkpt lat="44.19726" lon="4.26625">
        <ele>287</ele>
        <time>2010-01-01T01:36:55Z</time>
      </trkpt>
      <trkpt lat="44.19718" lon="4.26632">
        <ele>287</ele>
        <time>2010-01-01T01:36:59Z</time>
      </trkpt>
      <trkpt lat="44.19714" lon="4.26639">
        <ele>289</ele>
        <time>2010-01-01T01:37:01Z</time>
      </trkpt>
      <trkpt lat="44.1971" lon="4.26654">
        <ele>291</ele>
        <time>2010-01-01T01:37:06Z</time>
      </trkpt>
      <trkpt lat="44.19702" lon="4.26664">
        <ele>291</ele>
        <time>2010-01-01T01:37:10Z</time>
      </trkpt>
      <trkpt lat="44.19691" lon="4.26668">
        <ele>291</ele>
        <time>2010-01-01T01:37:15Z</time>
      </trkpt>
      <trkpt lat="44.19677" lon="4.26672">
        <ele>291</ele>
        <time>2010-01-01T01:37:21Z</time>
      </trkpt>
      <trkpt lat="44.19669" lon="4.26698">
        <ele>290</ele>
        <time>2010-01-01T01:37:29Z</time>
      </trkpt>
      <trkpt lat="44.19649" lon="4.26723">
        <ele>288</ele>
        <time>2010-01-01T01:37:40Z</time>
      </trkpt>
      <trkpt lat="44.19632" lon="4.26752">
        <ele>287</ele>
        <time>2010-01-01T01:37:50Z</time>
      </trkpt>
      <trkpt lat="44.19613" lon="4.2678">
        <ele>283</ele>
        <time>2010-01-01T01:38:01Z</time>
      </trkpt>
      <trkpt lat="44.196" lon="4.26806">
        <ele>283</ele>
        <time>2010-01-01T01:38:10Z</time>
      </trkpt>
      <trkpt lat="44.19583" lon="4.26834">
        <ele>282</ele>
        <time>2010-01-01T01:38:21Z</time>
      </trkpt>
      <trkpt lat="44.19568" lon="4.26839">
        <ele>278</ele>
        <time>2010-01-01T01:38:27Z</time>
      </trkpt>
      <trkpt lat="44.19569" lon="4.2681">
        <ele>275</ele>
        <time>2010-01-01T01:38:35Z</time>
      </trkpt>
      <trkpt lat="44.19579" lon="4.26767">
        <ele>271</ele>
        <time>2010-01-01T01:38:48Z</time>
      </trkpt>
      <trkpt lat="44.19592" lon="4.26713">
        <ele>268</ele>
        <time>2010-01-01T01:39:05Z</time>
      </trkpt>
      <trkpt lat="44.19603" lon="4.26656">
        <ele>264</ele>
        <time>2010-01-01T01:39:22Z</time>
      </trkpt>
      <trkpt lat="44.196" lon="4.26625">
        <ele>260</ele>
        <time>2010-01-01T01:39:31Z</time>
      </trkpt>
      <trkpt lat="44.19595" lon="4.26639">
        <ele>257</ele>
        <time>2010-01-01T01:39:35Z</time>
      </trkpt>
      <trkpt lat="44.19591" lon="4.26664">
        <ele>257</ele>
        <time>2010-01-01T01:39:43Z</time>
      </trkpt>
      <trkpt lat="44.19585" lon="4.26689">
        <ele>257</ele>
        <time>2010-01-01T01:39:50Z</time>
      </trkpt>
      <trkpt lat="44.19576" lon="4.26713">
        <ele>258</ele>
        <time>2010-01-01T01:39:58Z</time>
      </trkpt>
      <trkpt lat="44.19566" lon="4.26737">
        <ele>259</ele>
        <time>2010-01-01T01:40:06Z</time>
      </trkpt>
      <trkpt lat="44.19558" lon="4.26758">
        <ele>260</ele>
        <time>2010-01-01T01:40:13Z</time>
      </trkpt>
      <trkpt lat="44.19539" lon="4.26764">
        <ele>261</ele>
        <time>2010-01-01T01:40:21Z</time>
      </trkpt>
      <trkpt lat="44.19522" lon="4.26749">
        <ele>261</ele>
        <time>2010-01-01T01:40:29Z</time>
      </trkpt>
      <trkpt lat="44.19516" lon="4.26724">
        <ele>261</ele>
        <time>2010-01-01T01:40:36Z</time>
      </trkpt>
      <trkpt lat="44.19508" lon="4.26703">
        <ele>261</ele>
        <time>2010-01-01T01:40:43Z</time>
      </trkpt>
      <trkpt lat="44.19499" lon="4.26671">
        <ele>261</ele>
        <time>2010-01-01T01:40:53Z</time>
      </trkpt>
      <trkpt lat="44.19501" lon="4.26638">
        <ele>259</ele>
        <time>2010-01-01T01:41:02Z</time>
      </trkpt>
      <trkpt lat="44.19494" lon="4.26609">
        <ele>257</ele>
        <time>2010-01-01T01:41:11Z</time>
      </trkpt>
      <trkpt lat="44.19484" lon="4.26587">
        <ele>253</ele>
        <time>2010-01-01T01:41:18Z</time>
      </trkpt>
      <trkpt lat="44.19478" lon="4.26565">
        <ele>252</ele>
        <time>2010-01-01T01:41:25Z</time>
      </trkpt>
      <trkpt lat="44.19471" lon="4.26549">
        <ele>252</ele>
        <time>2010-01-01T01:41:31Z</time>
      </trkpt>
      <trkpt lat="44.19465" lon="4.26536">
        <ele>254</ele>
        <time>2010-01-01T01:41:35Z</time>
      </trkpt>
      <trkpt lat="44.19461" lon="4.26522">
        <ele>255</ele>
        <time>2010-01-01T01:41:39Z</time>
      </trkpt>
      <trkpt lat="44.19455" lon="4.26508">
        <ele>256</ele>
        <time>2010-01-01T01:41:44Z</time>
      </trkpt>
      <trkpt lat="44.19455" lon="4.26489">
        <ele>256</ele>
        <time>2010-01-01T01:41:50Z</time>
      </trkpt>
      <trkpt lat="44.19454" lon="4.26468">
        <ele>256</ele>
        <time>2010-01-01T01:41:56Z</time>
      </trkpt>
      <trkpt lat="44.19455" lon="4.26444">
        <ele>254</ele>
        <time>2010-01-01T01:42:02Z</time>
      </trkpt>
      <trkpt lat="44.19458" lon="4.26423">
        <ele>252</ele>
        <time>2010-01-01T01:42:09Z</time>
      </trkpt>
      <trkpt lat="44.1946" lon="4.26397">
        <ele>248</ele>
        <time>2010-01-01T01:42:16Z</time>
      </trkpt>
      <trkpt lat="44.19456" lon="4.2636">
        <ele>246</ele>
        <time>2010-01-01T01:42:27Z</time>
      </trkpt>
      <trkpt lat="44.19453" lon="4.26318">
        <ele>242</ele>
        <time>2010-01-01T01:42:39Z</time>
      </trkpt>
      <trkpt lat="44.19451" lon="4.26276">
        <ele>236</ele>
        <time>2010-01-01T01:42:51Z</time>
      </trkpt>
      <trkpt lat="44.19465" lon="4.26251">
        <ele>232</ele>
        <time>2010-01-01T01:43:00Z</time>
      </trkpt>
      <trkpt lat="44.19485" lon="4.26243">
        <ele>228</ele>
        <time>2010-01-01T01:43:08Z</time>
      </trkpt>
      <trkpt lat="44.19505" lon="4.26248">
        <ele>225</ele>
        <time>2010-01-01T01:43:16Z</time>
      </trkpt>
      <trkpt lat="44.19521" lon="4.26255">
        <ele>220</ele>
        <time>2010-01-01T01:43:23Z</time>
      </trkpt>
      <trkpt lat="44.19533" lon="4.26256">
        <ele>216</ele>
        <time>2010-01-01T01:43:28Z</time>
      </trkpt>
      <trkpt lat="44.19535" lon="4.26233">
        <ele>212</ele>
        <time>2010-01-01T01:43:35Z</time>
      </trkpt>
      <trkpt lat="44.19531" lon="4.26209">
        <ele>209</ele>
        <time>2010-01-01T01:43:42Z</time>
      </trkpt>
      <trkpt lat="44.19529" lon="4.26184">
        <ele>207</ele>
        <time>2010-01-01T01:43:49Z</time>
      </trkpt>
      <trkpt lat="44.1953" lon="4.26164">
        <ele>207</ele>
        <time>2010-01-01T01:43:55Z</time>
      </trkpt>
      <trkpt lat="44.19526" lon="4.26134">
        <ele>205</ele>
        <time>2010-01-01T01:44:04Z</time>
      </trkpt>
      <trkpt lat="44.19524" lon="4.26096">
        <ele>203</ele>
        <time>2010-01-01T01:44:15Z</time>
      </trkpt>
      <trkpt lat="44.19517" lon="4.26057">
        <ele>201</ele>
        <time>2010-01-01T01:44:26Z</time>
      </trkpt>
      <trkpt lat="44.19509" lon="4.26023">
        <ele>200</ele>
        <time>2010-01-01T01:44:37Z</time>
      </trkpt>
      <trkpt lat="44.19497" lon="4.25998">
        <ele>198</ele>
        <time>2010-01-01T01:44:45Z</time>
      </trkpt>
      <trkpt lat="44.19491" lon="4.2597">
        <ele>196</ele>
        <time>2010-01-01T01:44:53Z</time>
      </trkpt>
      <trkpt lat="44.19483" lon="4.25946">
        <ele>196</ele>
        <time>2010-01-01T01:45:01Z</time>
      </trkpt>
      <trkpt lat="44.19475" lon="4.25915">
        <ele>194</ele>
        <time>2010-01-01T01:45:10Z</time>
      </trkpt>
      <trkpt lat="44.19462" lon="4.25898">
        <ele>193</ele>
        <time>2010-01-01T01:45:18Z</time>
      </trkpt>
      <trkpt lat="44.19452" lon="4.25891">
        <ele>193</ele>
        <time>2010-01-01T01:45:22Z</time>
      </trkpt>
      <trkpt lat="44.19452" lon="4.25872">
        <ele>194</ele>
        <time>2010-01-01T01:45:28Z</time>
      </trkpt>
      <trkpt lat="44.19454" lon="4.25857">
        <ele>192</ele>
        <time>2010-01-01T01:45:32Z</time>
      </trkpt>
      <trkpt lat="44.19447" lon="4.25848">
        <ele>190</ele>
        <time>2010-01-01T01:45:35Z</time>
      </trkpt>
      <trkpt lat="44.19445" lon="4.25825">
        <ele>191</ele>
        <time>2010-01-01T01:45:42Z</time>
      </trkpt>
      <trkpt lat="44.19436" lon="4.258">
        <ele>189</ele>
        <time>2010-01-01T01:45:50Z</time>
      </trkpt>
      <trkpt lat="44.19424" lon="4.25789">
        <ele>189</ele>
        <time>2010-01-01T01:45:56Z</time>
      </trkpt>
      <trkpt lat="44.19413" lon="4.25772">
        <ele>189</ele>
        <time>2010-01-01T01:46:02Z</time>
      </trkpt>
      <trkpt lat="44.19404" lon="4.2575">
        <ele>189</ele>
        <time>2010-01-01T01:46:10Z</time>
      </trkpt>
      <trkpt lat="44.19384" lon="4.25733">
        <ele>185</ele>
        <time>2010-01-01T01:46:19Z</time>
      </trkpt>
      <trkpt lat="44.19364" lon="4.2572">
        <ele>183</ele>
        <time>2010-01-01T01:46:28Z</time>
      </trkpt>
      <trkpt lat="44.19345" lon="4.25714">
        <ele>183</ele>
        <time>2010-01-01T01:46:36Z</time>
      </trkpt>
      <trkpt lat="44.1932" lon="4.25701">
        <ele>182</ele>
        <time>2010-01-01T01:46:46Z</time>
      </trkpt>
      <trkpt lat="44.19294" lon="4.25689">
        <ele>179</ele>
        <time>2010-01-01T01:46:57Z</time>
      </trkpt>
      <trkpt lat="44.19274" lon="4.25673">
        <ele>178</ele>
        <time>2010-01-01T01:47:07Z</time>
      </trkpt>
      <trkpt lat="44.19247" lon="4.25655">
        <ele>176</ele>
        <time>2010-01-01T01:47:19Z</time>
      </trkpt>
      <trkpt lat="44.19221" lon="4.25664">
        <ele>174</ele>
        <time>2010-01-01T01:47:29Z</time>
      </trkpt>
      <trkpt lat="44.19201" lon="4.25681">
        <ele>174</ele>
        <time>2010-01-01T01:47:39Z</time>
      </trkpt>
      <trkpt lat="44.19186" lon="4.25705">
        <ele>174</ele>
        <time>2010-01-01T01:47:48Z</time>
      </trkpt>
      <trkpt lat="44.19178" lon="4.25735">
        <ele>174</ele>
        <time>2010-01-01T01:47:57Z</time>
      </trkpt>
      <trkpt lat="44.19171" lon="4.25762">
        <ele>174</ele>
        <time>2010-01-01T01:48:05Z</time>
      </trkpt>
      <trkpt lat="44.19159" lon="4.25787">
        <ele>174</ele>
        <time>2010-01-01T01:48:14Z</time>
      </trkpt>
      <trkpt lat="44.19157" lon="4.25765">
        <ele>174</ele>
        <time>2010-01-01T01:48:20Z</time>
      </trkpt>
      <trkpt lat="44.19156" lon="4.25761">
        <ele>174</ele>
        <time>2010-01-01T01:48:21Z</time>
      </trkpt>
      <trkpt lat="44.19156" lon="4.25752">
        <ele>174</ele>
        <time>2010-01-01T01:48:24Z</time>
      </trkpt>
      <trkpt lat="44.19156" lon="4.2575">
        <ele>174</ele>
        <time>2010-01-01T01:48:24Z</time>
      </trkpt>
      <trkpt lat="44.19156" lon="4.25745">
        <ele>174</ele>
        <time>2010-01-01T01:48:26Z</time>
      </trkpt>
      <trkpt lat="44.19156" lon="4.25741">
        <ele>174</ele>
        <time>2010-01-01T01:48:27Z</time>
      </trkpt>
      <trkpt lat="44.19156" lon="4.25737">
        <ele>174</ele>
        <time>2010-01-01T01:48:28Z</time>
      </trkpt>
      <trkpt lat="44.19156" lon="4.25735">
        <ele>174</ele>
        <time>2010-01-01T01:48:29Z</time>
      </trkpt>
      <trkpt lat="44.19155" lon="4.2573">
        <ele>174</ele>
        <time>2010-01-01T01:48:30Z</time>
      </trkpt>
      <trkpt lat="44.19153" lon="4.25725">
        <ele>174</ele>
        <time>2010-01-01T01:48:32Z</time>
      </trkpt>
      <trkpt lat="44.19151" lon="4.25725">
        <ele>174</ele>
        <time>2010-01-01T01:48:33Z</time>
      </trkpt>
      <trkpt lat="44.19146" lon="4.25724">
        <ele>174</ele>
        <time>2010-01-01T01:48:34Z</time>
      </trkpt>
      <trkpt lat="44.19143" lon="4.25723">
        <ele>174</ele>
        <time>2010-01-01T01:48:36Z</time>
      </trkpt>
      <trkpt lat="44.19141" lon="4.25722">
        <ele>174</ele>
        <time>2010-01-01T01:48:37Z</time>
      </trkpt>
      <trkpt lat="44.19136" lon="4.25722">
        <ele>174</ele>
        <time>2010-01-01T01:48:39Z</time>
      </trkpt>
      <trkpt lat="44.19134" lon="4.25722">
        <ele>174</ele>
        <time>2010-01-01T01:48:40Z</time>
      </trkpt>
      <trkpt lat="44.1913" lon="4.25722">
        <ele>174</ele>
        <time>2010-01-01T01:48:41Z</time>
      </trkpt>
      <trkpt lat="44.19127" lon="4.25722">
        <ele>174</ele>
        <time>2010-01-01T01:48:42Z</time>
      </trkpt>
      <trkpt lat="44.19121" lon="4.25725">
        <ele>174</ele>
        <time>2010-01-01T01:48:45Z</time>
      </trkpt>
      <trkpt lat="44.19119" lon="4.25726">
        <ele>174</ele>
        <time>2010-01-01T01:48:46Z</time>
      </trkpt>
      <trkpt lat="44.19117" lon="4.25727">
        <ele>174</ele>
        <time>2010-01-01T01:48:47Z</time>
      </trkpt>
      <trkpt lat="44.19112" lon="4.25728">
        <ele>174</ele>
        <time>2010-01-01T01:48:49Z</time>
      </trkpt>
      <trkpt lat="44.1911" lon="4.25728">
        <ele>174</ele>
        <time>2010-01-01T01:48:49Z</time>
      </trkpt>
      <trkpt lat="44.19107" lon="4.25728">
        <ele>174</ele>
        <time>2010-01-01T01:48:51Z</time>
      </trkpt>
      <trkpt lat="44.19103" lon="4.25728">
        <ele>174</ele>
        <time>2010-01-01T01:48:52Z</time>
      </trkpt>
      <trkpt lat="44.19099" lon="4.25727">
        <ele>174</ele>
        <time>2010-01-01T01:48:54Z</time>
      </trkpt>
      <trkpt lat="44.19096" lon="4.25727">
        <ele>174</ele>
        <time>2010-01-01T01:48:55Z</time>
      </trkpt>
      <trkpt lat="44.19095" lon="4.25726">
        <ele>174</ele>
        <time>2010-01-01T01:48:56Z</time>
      </trkpt>
      <trkpt lat="44.1909" lon="4.25726">
        <ele>174</ele>
        <time>2010-01-01T01:48:58Z</time>
      </trkpt>
      <trkpt lat="44.19088" lon="4.25726">
        <ele>174</ele>
        <time>2010-01-01T01:48:58Z</time>
      </trkpt>
      <trkpt lat="44.19083" lon="4.25727">
        <ele>174</ele>
        <time>2010-01-01T01:49:00Z</time>
      </trkpt>
      <trkpt lat="44.19079" lon="4.25728">
        <ele>174</ele>
        <time>2010-01-01T01:49:02Z</time>
      </trkpt>
      <trkpt lat="44.1907" lon="4.25729">
        <ele>174</ele>
        <time>2010-01-01T01:49:06Z</time>
      </trkpt>
      <trkpt lat="44.19067" lon="4.2573">
        <ele>174</ele>
        <time>2010-01-01T01:49:07Z</time>
      </trkpt>
      <trkpt lat="44.19062" lon="4.2573">
        <ele>174</ele>
        <time>2010-01-01T01:49:09Z</time>
      </trkpt>
      <trkpt lat="44.19058" lon="4.2573">
        <ele>174</ele>
        <time>2010-01-01T01:49:10Z</time>
      </trkpt>
      <trkpt lat="44.19052" lon="4.2573">
        <ele>174</ele>
        <time>2010-01-01T01:49:13Z</time>
      </trkpt>
      <trkpt lat="44.1905" lon="4.2573">
        <ele>174</ele>
        <time>2010-01-01T01:49:14Z</time>
      </trkpt>
      <trkpt lat="44.19044" lon="4.25731">
        <ele>174</ele>
        <time>2010-01-01T01:49:16Z</time>
      </trkpt>
      <trkpt lat="44.19042" lon="4.25731">
        <ele>174</ele>
        <time>2010-01-01T01:49:17Z</time>
      </trkpt>
      <trkpt lat="44.19037" lon="4.25732">
        <ele>174</ele>
        <time>2010-01-01T01:49:19Z</time>
      </trkpt>
      <trkpt lat="44.19035" lon="4.25732">
        <ele>174</ele>
        <time>2010-01-01T01:49:20Z</time>
      </trkpt>
      <trkpt lat="44.1903" lon="4.25734">
        <ele>174</ele>
        <time>2010-01-01T01:49:22Z</time>
      </trkpt>
      <trkpt lat="44.19029" lon="4.25734">
        <ele>174</ele>
        <time>2010-01-01T01:49:22Z</time>
      </trkpt>
      <trkpt lat="44.19026" lon="4.25735">
        <ele>174</ele>
        <time>2010-01-01T01:49:23Z</time>
      </trkpt>
      <trkpt lat="44.1902" lon="4.25736">
        <ele>174</ele>
        <time>2010-01-01T01:49:26Z</time>
      </trkpt>
      <trkpt lat="44.19018" lon="4.25737">
        <ele>174</ele>
        <time>2010-01-01T01:49:26Z</time>
      </trkpt>
      <trkpt lat="44.19015" lon="4.25737">
        <ele>174</ele>
        <time>2010-01-01T01:49:28Z</time>
      </trkpt>
      <trkpt lat="44.1901" lon="4.25739">
        <ele>174</ele>
        <time>2010-01-01T01:49:30Z</time>
      </trkpt>
      <trkpt lat="44.19005" lon="4.25739">
        <ele>174</ele>
        <time>2010-01-01T01:49:32Z</time>
      </trkpt>
      <trkpt lat="44.19001" lon="4.25739">
        <ele>174</ele>
        <time>2010-01-01T01:49:33Z</time>
      </trkpt>
      <trkpt lat="44.18996" lon="4.2574">
        <ele>174</ele>
        <time>2010-01-01T01:49:35Z</time>
      </trkpt>
      <trkpt lat="44.18995" lon="4.2574">
        <ele>174</ele>
        <time>2010-01-01T01:49:36Z</time>
      </trkpt>
      <trkpt lat="44.18993" lon="4.2574">
        <ele>174</ele>
        <time>2010-01-01T01:49:37Z</time>
      </trkpt>
      <trkpt lat="44.18986" lon="4.25741">
        <ele>174</ele>
        <time>2010-01-01T01:49:40Z</time>
      </trkpt>
      <trkpt lat="44.18984" lon="4.25741">
        <ele>174</ele>
        <time>2010-01-01T01:49:40Z</time>
      </trkpt>
      <trkpt lat="44.1898" lon="4.25741">
        <ele>174</ele>
        <time>2010-01-01T01:49:42Z</time>
      </trkpt>
      <trkpt lat="44.18977" lon="4.25741">
        <ele>174</ele>
        <time>2010-01-01T01:49:43Z</time>
      </trkpt>
      <trkpt lat="44.18972" lon="4.25741">
        <ele>174</ele>
        <time>2010-01-01T01:49:45Z</time>
      </trkpt>
      <trkpt lat="44.18967" lon="4.2574">
        <ele>174</ele>
        <time>2010-01-01T01:49:47Z</time>
      </trkpt>
      <trkpt lat="44.18964" lon="4.25739">
        <ele>174</ele>
        <time>2010-01-01T01:49:48Z</time>
      </trkpt>
      <trkpt lat="44.1896" lon="4.25738">
        <ele>174</ele>
        <time>2010-01-01T01:49:50Z</time>
      </trkpt>
      <trkpt lat="44.18958" lon="4.25737">
        <ele>174</ele>
        <time>2010-01-01T01:49:51Z</time>
      </trkpt>
      <trkpt lat="44.18953" lon="4.25736">
        <ele>174</ele>
        <time>2010-01-01T01:49:53Z</time>
      </trkpt>
      <trkpt lat="44.18951" lon="4.25735">
        <ele>174</ele>
        <time>2010-01-01T01:49:54Z</time>
      </trkpt>
      <trkpt lat="44.18948" lon="4.25734">
        <ele>174</ele>
        <time>2010-01-01T01:49:55Z</time>
      </trkpt>
      <trkpt lat="44.18945" lon="4.25732">
        <ele>174</ele>
        <time>2010-01-01T01:49:56Z</time>
      </trkpt>
      <trkpt lat="44.1894" lon="4.2573">
        <ele>174</ele>
        <time>2010-01-01T01:49:59Z</time>
      </trkpt>
      <trkpt lat="44.18939" lon="4.2573">
        <ele>174</ele>
        <time>2010-01-01T01:49:59Z</time>
      </trkpt>
      <trkpt lat="44.18934" lon="4.25728">
        <ele>174</ele>
        <time>2010-01-01T01:50:01Z</time>
      </trkpt>
      <trkpt lat="44.18932" lon="4.25727">
        <ele>174</ele>
        <time>2010-01-01T01:50:02Z</time>
      </trkpt>
      <trkpt lat="44.18929" lon="4.25726">
        <ele>174</ele>
        <time>2010-01-01T01:50:03Z</time>
      </trkpt>
      <trkpt lat="44.18925" lon="4.25726">
        <ele>174</ele>
        <time>2010-01-01T01:50:05Z</time>
      </trkpt>
      <trkpt lat="44.18923" lon="4.25725">
        <ele>174</ele>
        <time>2010-01-01T01:50:05Z</time>
      </trkpt>
      <trkpt lat="44.18919" lon="4.25725">
        <ele>174</ele>
        <time>2010-01-01T01:50:07Z</time>
      </trkpt>
      <trkpt lat="44.18915" lon="4.25726">
        <ele>174</ele>
        <time>2010-01-01T01:50:09Z</time>
      </trkpt>
      <trkpt lat="44.18914" lon="4.25727">
        <ele>174</ele>
        <time>2010-01-01T01:50:09Z</time>
      </trkpt>
      <trkpt lat="44.18904" lon="4.25725">
        <ele>183</ele>
        <time>2010-01-01T01:50:13Z</time>
      </trkpt>
      <trkpt lat="44.18896" lon="4.25725">
        <ele>182</ele>
        <time>2010-01-01T01:50:16Z</time>
      </trkpt>
      <trkpt lat="44.18888" lon="4.25732">
        <ele>182</ele>
        <time>2010-01-01T01:50:20Z</time>
      </trkpt>
      <trkpt lat="44.18881" lon="4.25738">
        <ele>184</ele>
        <time>2010-01-01T01:50:23Z</time>
      </trkpt>
      <trkpt lat="44.18872" lon="4.25739">
        <ele>185</ele>
        <time>2010-01-01T01:50:27Z</time>
      </trkpt>
      <trkpt lat="44.18862" lon="4.25733">
        <ele>186</ele>
        <time>2010-01-01T01:50:31Z</time>
      </trkpt>
      <trkpt lat="44.18856" lon="4.25724">
        <ele>187</ele>
        <time>2010-01-01T01:50:35Z</time>
      </trkpt>
      <trkpt lat="44.18848" lon="4.25719">
        <ele>187</ele>
        <time>2010-01-01T01:50:38Z</time>
      </trkpt>
      <trkpt lat="44.1884" lon="4.25716">
        <ele>188</ele>
        <time>2010-01-01T01:50:42Z</time>
      </trkpt>
      <trkpt lat="44.18833" lon="4.25712">
        <ele>189</ele>
        <time>2010-01-01T01:50:45Z</time>
      </trkpt>
      <trkpt lat="44.18827" lon="4.25704">
        <ele>190</ele>
        <time>2010-01-01T01:50:48Z</time>
      </trkpt>
      <trkpt lat="44.1882" lon="4.25696">
        <ele>191</ele>
        <time>2010-01-01T01:50:52Z</time>
      </trkpt>
      <trkpt lat="44.18815" lon="4.25685">
        <ele>193</ele>
        <time>2010-01-01T01:50:55Z</time>
      </trkpt>
      <trkpt lat="44.1881" lon="4.25674">
        <ele>194</ele>
        <time>2010-01-01T01:50:59Z</time>
      </trkpt>
      <trkpt lat="44.18803" lon="4.25664">
        <ele>195</ele>
        <time>2010-01-01T01:51:03Z</time>
      </trkpt>
      <trkpt lat="44.18792" lon="4.25654">
        <ele>195</ele>
        <time>2010-01-01T01:51:08Z</time>
      </trkpt>
      <trkpt lat="44.18781" lon="4.25641">
        <ele>195</ele>
        <time>2010-01-01T01:51:14Z</time>
      </trkpt>
      <trkpt lat="44.18772" lon="4.25629">
        <ele>195</ele>
        <time>2010-01-01T01:51:19Z</time>
      </trkpt>
      <trkpt lat="44.18763" lon="4.25625">
        <ele>195</ele>
        <time>2010-01-01T01:51:23Z</time>
      </trkpt>
      <trkpt lat="44.18757" lon="4.25617">
        <ele>197</ele>
        <time>2010-01-01T01:51:26Z</time>
      </trkpt>
      <trkpt lat="44.18752" lon="4.25608">
        <ele>198</ele>
        <time>2010-01-01T01:51:30Z</time>
      </trkpt>
      <trkpt lat="44.18743" lon="4.25603">
        <ele>199</ele>
        <time>2010-01-01T01:51:33Z</time>
      </trkpt>
      <trkpt lat="44.18735" lon="4.25602">
        <ele>201</ele>
        <time>2010-01-01T01:51:37Z</time>
      </trkpt>
      <trkpt lat="44.18727" lon="4.25606">
        <ele>202</ele>
        <time>2010-01-01T01:51:40Z</time>
      </trkpt>
      <trkpt lat="44.18724" lon="4.25614">
        <ele>203</ele>
        <time>2010-01-01T01:51:43Z</time>
      </trkpt>
      <trkpt lat="44.18718" lon="4.25618">
        <ele>205</ele>
        <time>2010-01-01T01:51:45Z</time>
      </trkpt>
      <trkpt lat="44.18713" lon="4.25623">
        <ele>207</ele>
        <time>2010-01-01T01:51:48Z</time>
      </trkpt>
      <trkpt lat="44.18708" lon="4.25629">
        <ele>209</ele>
        <time>2010-01-01T01:51:50Z</time>
      </trkpt>
      <trkpt lat="44.18702" lon="4.25637">
        <ele>210</ele>
        <time>2010-01-01T01:51:53Z</time>
      </trkpt>
      <trkpt lat="44.18694" lon="4.25644">
        <ele>210</ele>
        <time>2010-01-01T01:51:57Z</time>
      </trkpt>
      <trkpt lat="44.18691" lon="4.25654">
        <ele>211</ele>
        <time>2010-01-01T01:52:00Z</time>
      </trkpt>
      <trkpt lat="44.18688" lon="4.25661">
        <ele>211</ele>
        <time>2010-01-01T01:52:03Z</time>
      </trkpt>
      <trkpt lat="44.18689" lon="4.2567">
        <ele>212</ele>
        <time>2010-01-01T01:52:05Z</time>
      </trkpt>
      <trkpt lat="44.18689" lon="4.25674">
        <ele>213</ele>
        <time>2010-01-01T01:52:06Z</time>
      </trkpt>
      <trkpt lat="44.18691" lon="4.2568">
        <ele>213</ele>
        <time>2010-01-01T01:52:08Z</time>
      </trkpt>
      <trkpt lat="44.18693" lon="4.25686">
        <ele>214</ele>
        <time>2010-01-01T01:52:10Z</time>
      </trkpt>
      <trkpt lat="44.18694" lon="4.25692">
        <ele>215</ele>
        <time>2010-01-01T01:52:12Z</time>
      </trkpt>
      <trkpt lat="44.18694" lon="4.25697">
        <ele>216</ele>
        <time>2010-01-01T01:52:13Z</time>
      </trkpt>
      <trkpt lat="44.18693" lon="4.25702">
        <ele>217</ele>
        <time>2010-01-01T01:52:15Z</time>
      </trkpt>
      <trkpt lat="44.18691" lon="4.25707">
        <ele>218</ele>
        <time>2010-01-01T01:52:16Z</time>
      </trkpt>
      <trkpt lat="44.1869" lon="4.25708">
        <ele>218</ele>
        <time>2010-01-01T01:52:17Z</time>
      </trkpt>
      <trkpt lat="44.18687" lon="4.25713">
        <ele>218</ele>
        <time>2010-01-01T01:52:19Z</time>
      </trkpt>
      <trkpt lat="44.18683" lon="4.25715">
        <ele>220</ele>
        <time>2010-01-01T01:52:20Z</time>
      </trkpt>
      <trkpt lat="44.18679" lon="4.25717">
        <ele>221</ele>
        <time>2010-01-01T01:52:22Z</time>
      </trkpt>
      <trkpt lat="44.18674" lon="4.25722">
        <ele>221</ele>
        <time>2010-01-01T01:52:25Z</time>
      </trkpt>
      <trkpt lat="44.1867" lon="4.25726">
        <ele>223</ele>
        <time>2010-01-01T01:52:27Z</time>
      </trkpt>
      <trkpt lat="44.18663" lon="4.25729">
        <ele>223</ele>
        <time>2010-01-01T01:52:30Z</time>
      </trkpt>
      <trkpt lat="44.18654" lon="4.25738">
        <ele>224</ele>
        <time>2010-01-01T01:52:34Z</time>
      </trkpt>
      <trkpt lat="44.18648" lon="4.25745">
        <ele>225</ele>
        <time>2010-01-01T01:52:37Z</time>
      </trkpt>
      <trkpt lat="44.18643" lon="4.25754">
        <ele>225</ele>
        <time>2010-01-01T01:52:41Z</time>
      </trkpt>
      <trkpt lat="44.18637" lon="4.25762">
        <ele>226</ele>
        <time>2010-01-01T01:52:44Z</time>
      </trkpt>
      <trkpt lat="44.18631" lon="4.25767">
        <ele>228</ele>
        <time>2010-01-01T01:52:47Z</time>
      </trkpt>
      <trkpt lat="44.18625" lon="4.25774">
        <ele>229</ele>
        <time>2010-01-01T01:52:50Z</time>
      </trkpt>
      <trkpt lat="44.1862" lon="4.25781">
        <ele>230</ele>
        <time>2010-01-01T01:52:53Z</time>
      </trkpt>
      <trkpt lat="44.18614" lon="4.25788">
        <ele>231</ele>
        <time>2010-01-01T01:52:56Z</time>
      </trkpt>
      <trkpt lat="44.18608" lon="4.25791">
        <ele>232</ele>
        <time>2010-01-01T01:52:58Z</time>
      </trkpt>
      <trkpt lat="44.18603" lon="4.25785">
        <ele>233</ele>
        <time>2010-01-01T01:53:01Z</time>
      </trkpt>
      <trkpt lat="44.186" lon="4.25782">
        <ele>233</ele>
        <time>2010-01-01T01:53:02Z</time>
      </trkpt>
      <trkpt lat="44.18597" lon="4.25779">
        <ele>235</ele>
        <time>2010-01-01T01:53:04Z</time>
      </trkpt>
      <trkpt lat="44.18597" lon="4.25769">
        <ele>236</ele>
        <time>2010-01-01T01:53:07Z</time>
      </trkpt>
      <trkpt lat="44.18596" lon="4.25755">
        <ele>236</ele>
        <time>2010-01-01T01:53:11Z</time>
      </trkpt>
      <trkpt lat="44.18593" lon="4.25745">
        <ele>236</ele>
        <time>2010-01-01T01:53:14Z</time>
      </trkpt>
      <trkpt lat="44.18583" lon="4.25736">
        <ele>236</ele>
        <time>2010-01-01T01:53:19Z</time>
      </trkpt>
      <trkpt lat="44.18571" lon="4.25732">
        <ele>237</ele>
        <time>2010-01-01T01:53:24Z</time>
      </trkpt>
      <trkpt lat="44.18572" lon="4.25717">
        <ele>237</ele>
        <time>2010-01-01T01:53:28Z</time>
      </trkpt>
      <trkpt lat="44.18587" lon="4.25699">
        <ele>237</ele>
        <time>2010-01-01T01:53:36Z</time>
      </trkpt>
      <trkpt lat="44.18601" lon="4.25669">
        <ele>233</ele>
        <time>2010-01-01T01:53:46Z</time>
      </trkpt>
      <trkpt lat="44.18602" lon="4.25656">
        <ele>231</ele>
        <time>2010-01-01T01:53:50Z</time>
      </trkpt>
      <trkpt lat="44.18605" lon="4.25639">
        <ele>231</ele>
        <time>2010-01-01T01:53:55Z</time>
      </trkpt>
      <trkpt lat="44.18611" lon="4.25622">
        <ele>231</ele>
        <time>2010-01-01T01:54:00Z</time>
      </trkpt>
      <trkpt lat="44.18617" lon="4.25603">
        <ele>229</ele>
        <time>2010-01-01T01:54:06Z</time>
      </trkpt>
      <trkpt lat="44.18622" lon="4.25579">
        <ele>227</ele>
        <time>2010-01-01T01:54:13Z</time>
      </trkpt>
      <trkpt lat="44.18625" lon="4.25559">
        <ele>226</ele>
        <time>2010-01-01T01:54:19Z</time>
      </trkpt>
      <trkpt lat="44.18622" lon="4.25546">
        <ele>226</ele>
        <time>2010-01-01T01:54:23Z</time>
      </trkpt>
      <trkpt lat="44.18621" lon="4.25541">
        <ele>226</ele>
        <time>2010-01-01T01:54:25Z</time>
      </trkpt>
      <trkpt lat="44.18619" lon="4.25533">
        <ele>227</ele>
        <time>2010-01-01T01:54:27Z</time>
      </trkpt>
      <trkpt lat="44.18616" lon="4.25525">
        <ele>228</ele>
        <time>2010-01-01T01:54:30Z</time>
      </trkpt>
      <trkpt lat="44.18613" lon="4.25516">
        <ele>229</ele>
        <time>2010-01-01T01:54:32Z</time>
      </trkpt>
      <trkpt lat="44.18609" lon="4.25499">
        <ele>229</ele>
        <time>2010-01-01T01:54:38Z</time>
      </trkpt>
      <trkpt lat="44.186" lon="4.25482">
        <ele>229</ele>
        <time>2010-01-01T01:54:44Z</time>
      </trkpt>
      <trkpt lat="44.18592" lon="4.25473">
        <ele>227</ele>
        <time>2010-01-01T01:54:48Z</time>
      </trkpt>
      <trkpt lat="44.1859" lon="4.25453">
        <ele>227</ele>
        <time>2010-01-01T01:54:54Z</time>
      </trkpt>
      <trkpt lat="44.18604" lon="4.25429">
        <ele>227</ele>
        <time>2010-01-01T01:55:03Z</time>
      </trkpt>
      <trkpt lat="44.18606" lon="4.25409">
        <ele>222</ele>
        <time>2010-01-01T01:55:08Z</time>
      </trkpt>
      <trkpt lat="44.18607" lon="4.25393">
        <ele>221</ele>
        <time>2010-01-01T01:55:13Z</time>
      </trkpt>
      <trkpt lat="44.18609" lon="4.25377">
        <ele>221</ele>
        <time>2010-01-01T01:55:18Z</time>
      </trkpt>
      <trkpt lat="44.1861" lon="4.25361">
        <ele>222</ele>
        <time>2010-01-01T01:55:22Z</time>
      </trkpt>
      <trkpt lat="44.18613" lon="4.25346">
        <ele>223</ele>
        <time>2010-01-01T01:55:27Z</time>
      </trkpt>
      <trkpt lat="44.18617" lon="4.25333">
        <ele>224</ele>
        <time>2010-01-01T01:55:31Z</time>
      </trkpt>
      <trkpt lat="44.1862" lon="4.25321">
        <ele>226</ele>
        <time>2010-01-01T01:55:34Z</time>
      </trkpt>
      <trkpt lat="44.18621" lon="4.25309">
        <ele>227</ele>
        <time>2010-01-01T01:55:38Z</time>
      </trkpt>
      <trkpt lat="44.18624" lon="4.25297">
        <ele>229</ele>
        <time>2010-01-01T01:55:41Z</time>
      </trkpt>
      <trkpt lat="44.18626" lon="4.25286">
        <ele>231</ele>
        <time>2010-01-01T01:55:45Z</time>
      </trkpt>
      <trkpt lat="44.18629" lon="4.25272">
        <ele>232</ele>
        <time>2010-01-01T01:55:49Z</time>
      </trkpt>
      <trkpt lat="44.1863" lon="4.25259">
        <ele>232</ele>
        <time>2010-01-01T01:55:53Z</time>
      </trkpt>
      <trkpt lat="44.18631" lon="4.25246">
        <ele>233</ele>
        <time>2010-01-01T01:55:56Z</time>
      </trkpt>
      <trkpt lat="44.1863" lon="4.25235">
        <ele>234</ele>
        <time>2010-01-01T01:56:00Z</time>
      </trkpt>
      <trkpt lat="44.1863" lon="4.25223">
        <ele>235</ele>
        <time>2010-01-01T01:56:03Z</time>
      </trkpt>
      <trkpt lat="44.18625" lon="4.25211">
        <ele>236</ele>
        <time>2010-01-01T01:56:07Z</time>
      </trkpt>
      <trkpt lat="44.1862" lon="4.25198">
        <ele>237</ele>
        <time>2010-01-01T01:56:11Z</time>
      </trkpt>
      <trkpt lat="44.18613" lon="4.25192">
        <ele>239</ele>
        <time>2010-01-01T01:56:15Z</time>
      </trkpt>
      <trkpt lat="44.18607" lon="4.25181">
        <ele>240</ele>
        <time>2010-01-01T01:56:19Z</time>
      </trkpt>
      <trkpt lat="44.18603" lon="4.25171">
        <ele>241</ele>
        <time>2010-01-01T01:56:22Z</time>
      </trkpt>
      <trkpt lat="44.18612" lon="4.25156">
        <ele>242</ele>
        <time>2010-01-01T01:56:28Z</time>
      </trkpt>
      <trkpt lat="44.18631" lon="4.25138">
        <ele>241</ele>
        <time>2010-01-01T01:56:37Z</time>
      </trkpt>
      <trkpt lat="44.18654" lon="4.25114">
        <ele>238</ele>
        <time>2010-01-01T01:56:48Z</time>
      </trkpt>
      <trkpt lat="44.1867" lon="4.25094">
        <ele>237</ele>
        <time>2010-01-01T01:56:57Z</time>
      </trkpt>
      <trkpt lat="44.18662" lon="4.25072">
        <ele>235</ele>
        <time>2010-01-01T01:57:04Z</time>
      </trkpt>
      <trkpt lat="44.18651" lon="4.25046">
        <ele>235</ele>
        <time>2010-01-01T01:57:12Z</time>
      </trkpt>
      <trkpt lat="44.18641" lon="4.2502">
        <ele>235</ele>
        <time>2010-01-01T01:57:21Z</time>
      </trkpt>
      <trkpt lat="44.18632" lon="4.25004">
        <ele>235</ele>
        <time>2010-01-01T01:57:27Z</time>
      </trkpt>
      <trkpt lat="44.18619" lon="4.24987">
        <ele>235</ele>
        <time>2010-01-01T01:57:34Z</time>
      </trkpt>
      <trkpt lat="44.18614" lon="4.24961">
        <ele>235</ele>
        <time>2010-01-01T01:57:42Z</time>
      </trkpt>
      <trkpt lat="44.1862" lon="4.24933">
        <ele>235</ele>
        <time>2010-01-01T01:57:50Z</time>
      </trkpt>
      <trkpt lat="44.18628" lon="4.24908">
        <ele>235</ele>
        <time>2010-01-01T01:57:58Z</time>
      </trkpt>
      <trkpt lat="44.18625" lon="4.24881">
        <ele>235</ele>
        <time>2010-01-01T01:58:06Z</time>
      </trkpt>
      <trkpt lat="44.18624" lon="4.24856">
        <ele>235</ele>
        <time>2010-01-01T01:58:13Z</time>
      </trkpt>
      <trkpt lat="44.18627" lon="4.24834">
        <ele>233</ele>
        <time>2010-01-01T01:58:19Z</time>
      </trkpt>
      <trkpt lat="44.18641" lon="4.24831">
        <ele>233</ele>
        <time>2010-01-01T01:58:25Z</time>
      </trkpt>
      <trkpt lat="44.18662" lon="4.24824">
        <ele>233</ele>
        <time>2010-01-01T01:58:34Z</time>
      </trkpt>
      <trkpt lat="44.18686" lon="4.24818">
        <ele>233</ele>
        <time>2010-01-01T01:58:44Z</time>
      </trkpt>
      <trkpt lat="44.18711" lon="4.24816">
        <ele>233</ele>
        <time>2010-01-01T01:58:54Z</time>
      </trkpt>
      <trkpt lat="44.18733" lon="4.24822">
        <ele>231</ele>
        <time>2010-01-01T01:59:02Z</time>
      </trkpt>
      <trkpt lat="44.18759" lon="4.24834">
        <ele>229</ele>
        <time>2010-01-01T01:59:13Z</time>
      </trkpt>
      <trkpt lat="44.18778" lon="4.24848">
        <ele>228</ele>
        <time>2010-01-01T01:59:22Z</time>
      </trkpt>
      <trkpt lat="44.18795" lon="4.24838">
        <ele>228</ele>
        <time>2010-01-01T01:59:29Z</time>
      </trkpt>
      <trkpt lat="44.18813" lon="4.24828">
        <ele>229</ele>
        <time>2010-01-01T01:59:37Z</time>
      </trkpt>
      <trkpt lat="44.18828" lon="4.24815">
        <ele>230</ele>
        <time>2010-01-01T01:59:44Z</time>
      </trkpt>
      <trkpt lat="44.18844" lon="4.24809">
        <ele>231</ele>
        <time>2010-01-01T01:59:51Z</time>
      </trkpt>
      <trkpt lat="44.1885" lon="4.24793">
        <ele>232</ele>
        <time>2010-01-01T01:59:56Z</time>
      </trkpt>
      <trkpt lat="44.18845" lon="4.24764">
        <ele>232</ele>
        <time>2010-01-01T02:00:05Z</time>
      </trkpt>
      <trkpt lat="44.18848" lon="4.24731">
        <ele>232</ele>
        <time>2010-01-01T02:00:14Z</time>
      </trkpt>
      <trkpt lat="44.18855" lon="4.24704">
        <ele>232</ele>
        <time>2010-01-01T02:00:22Z</time>
      </trkpt>
      <trkpt lat="44.18856" lon="4.24672">
        <ele>232</ele>
        <time>2010-01-01T02:00:31Z</time>
      </trkpt>
      <trkpt lat="44.18846" lon="4.24643">
        <ele>232</ele>
        <time>2010-01-01T02:00:41Z</time>
      </trkpt>
      <trkpt lat="44.18846" lon="4.24611">
        <ele>231</ele>
        <time>2010-01-01T02:00:50Z</time>
      </trkpt>
      <trkpt lat="44.18848" lon="4.24581">
        <ele>230</ele>
        <time>2010-01-01T02:00:59Z</time>
      </trkpt>
      <trkpt lat="44.1884" lon="4.24553">
        <ele>229</ele>
        <time>2010-01-01T02:01:07Z</time>
      </trkpt>
      <trkpt lat="44.18833" lon="4.24526">
        <ele>229</ele>
        <time>2010-01-01T02:01:15Z</time>
      </trkpt>
      <trkpt lat="44.18834" lon="4.24498">
        <ele>228</ele>
        <time>2010-01-01T02:01:23Z</time>
      </trkpt>
      <trkpt lat="44.18828" lon="4.2447">
        <ele>228</ele>
        <time>2010-01-01T02:01:32Z</time>
      </trkpt>
      <trkpt lat="44.18821" lon="4.24438">
        <ele>227</ele>
        <time>2010-01-01T02:01:41Z</time>
      </trkpt>
      <trkpt lat="44.18812" lon="4.24408">
        <ele>226</ele>
        <time>2010-01-01T02:01:51Z</time>
      </trkpt>
      <trkpt lat="44.18807" lon="4.24377">
        <ele>226</ele>
        <time>2010-01-01T02:02:00Z</time>
      </trkpt>
      <trkpt lat="44.18801" lon="4.24346">
        <ele>225</ele>
        <time>2010-01-01T02:02:09Z</time>
      </trkpt>
      <trkpt lat="44.1879" lon="4.24317">
        <ele>224</ele>
        <time>2010-01-01T02:02:19Z</time>
      </trkpt>
      <trkpt lat="44.18775" lon="4.24291">
        <ele>223</ele>
        <time>2010-01-01T02:02:28Z</time>
      </trkpt>
      <trkpt lat="44.18789" lon="4.24279">
        <ele>223</ele>
        <time>2010-01-01T02:02:35Z</time>
      </trkpt>
      <trkpt lat="44.18811" lon="4.24286">
        <ele>223</ele>
        <time>2010-01-01T02:02:44Z</time>
      </trkpt>
      <trkpt lat="44.18835" lon="4.24296">
        <ele>222</ele>
        <time>2010-01-01T02:02:54Z</time>
      </trkpt>
      <trkpt lat="44.18861" lon="4.24309">
        <ele>220</ele>
        <time>2010-01-01T02:03:05Z</time>
      </trkpt>
      <trkpt lat="44.18884" lon="4.24323">
        <ele>218</ele>
        <time>2010-01-01T02:03:15Z</time>
      </trkpt>
      <trkpt lat="44.1891" lon="4.24331">
        <ele>218</ele>
        <time>2010-01-01T02:03:26Z</time>
      </trkpt>
      <trkpt lat="44.18923" lon="4.24344">
        <ele>215</ele>
        <time>2010-01-01T02:03:32Z</time>
      </trkpt>
      <trkpt lat="44.18935" lon="4.24356">
        <ele>214</ele>
        <time>2010-01-01T02:03:38Z</time>
      </trkpt>
      <trkpt lat="44.18955" lon="4.24372">
        <ele>212</ele>
        <time>2010-01-01T02:03:47Z</time>
      </trkpt>
      <trkpt lat="44.18969" lon="4.2438">
        <ele>209</ele>
        <time>2010-01-01T02:03:53Z</time>
      </trkpt>
      <trkpt lat="44.18986" lon="4.24387">
        <ele>205</ele>
        <time>2010-01-01T02:04:00Z</time>
      </trkpt>
      <trkpt lat="44.19005" lon="4.24397">
        <ele>200</ele>
        <time>2010-01-01T02:04:08Z</time>
      </trkpt>
      <trkpt lat="44.1902" lon="4.24415">
        <ele>196</ele>
        <time>2010-01-01T02:04:17Z</time>
      </trkpt>
      <trkpt lat="44.19031" lon="4.24431">
        <ele>195</ele>
        <time>2010-01-01T02:04:23Z</time>
      </trkpt>
      <trkpt lat="44.19042" lon="4.24442">
        <ele>195</ele>
        <time>2010-01-01T02:04:28Z</time>
      </trkpt>
      <trkpt lat="44.19053" lon="4.24464">
        <ele>195</ele>
        <time>2010-01-01T02:04:36Z</time>
      </trkpt>
      <trkpt lat="44.19063" lon="4.24488">
        <ele>193</ele>
        <time>2010-01-01T02:04:44Z</time>
      </trkpt>
      <trkpt lat="44.19074" lon="4.24514">
        <ele>190</ele>
        <time>2010-01-01T02:04:53Z</time>
      </trkpt>
      <trkpt lat="44.19086" lon="4.24524">
        <ele>185</ele>
        <time>2010-01-01T02:04:58Z</time>
      </trkpt>
      <trkpt lat="44.19096" lon="4.24489">
        <ele>180</ele>
        <time>2010-01-01T02:05:09Z</time>
      </trkpt>
      <trkpt lat="44.19115" lon="4.24454">
        <ele>176</ele>
        <time>2010-01-01T02:05:22Z</time>
      </trkpt>
      <trkpt lat="44.19103" lon="4.24424">
        <ele>172</ele>
        <time>2010-01-01T02:05:31Z</time>
      </trkpt>
      <trkpt lat="44.19081" lon="4.24392">
        <ele>170</ele>
        <time>2010-01-01T02:05:44Z</time>
      </trkpt>
      <trkpt lat="44.19053" lon="4.2436">
        <ele>167</ele>
        <time>2010-01-01T02:05:59Z</time>
      </trkpt>
      <trkpt lat="44.19025" lon="4.24321">
        <ele>165</ele>
        <time>2010-01-01T02:06:14Z</time>
      </trkpt>
      <trkpt lat="44.18998" lon="4.24288">
        <ele>162</ele>
        <time>2010-01-01T02:06:29Z</time>
      </trkpt>
      <trkpt lat="44.18987" lon="4.24279">
        <ele>161</ele>
        <time>2010-01-01T02:06:34Z</time>
      </trkpt>
      <trkpt lat="44.18981" lon="4.24269">
        <ele>162</ele>
        <time>2010-01-01T02:06:38Z</time>
      </trkpt>
      <trkpt lat="44.18972" lon="4.24257">
        <ele>163</ele>
        <time>2010-01-01T02:06:43Z</time>
      </trkpt>
      <trkpt lat="44.18959" lon="4.24244">
        <ele>164</ele>
        <time>2010-01-01T02:06:49Z</time>
      </trkpt>
      <trkpt lat="44.18947" lon="4.24228">
        <ele>165</ele>
        <time>2010-01-01T02:06:56Z</time>
      </trkpt>
      <trkpt lat="44.18934" lon="4.2421">
        <ele>166</ele>
        <time>2010-01-01T02:07:03Z</time>
      </trkpt>
      <trkpt lat="44.18925" lon="4.24187">
        <ele>166</ele>
        <time>2010-01-01T02:07:10Z</time>
      </trkpt>
      <trkpt lat="44.18915" lon="4.24164">
        <ele>164</ele>
        <time>2010-01-01T02:07:18Z</time>
      </trkpt>
      <trkpt lat="44.18904" lon="4.24152">
        <ele>163</ele>
        <time>2010-01-01T02:07:24Z</time>
      </trkpt>
      <trkpt lat="44.18891" lon="4.24136">
        <ele>163</ele>
        <time>2010-01-01T02:07:31Z</time>
      </trkpt>
      <trkpt lat="44.18877" lon="4.24117">
        <ele>162</ele>
        <time>2010-01-01T02:07:39Z</time>
      </trkpt>
      <trkpt lat="44.18861" lon="4.24102">
        <ele>162</ele>
        <time>2010-01-01T02:07:46Z</time>
      </trkpt>
      <trkpt lat="44.18846" lon="4.24086">
        <ele>162</ele>
        <time>2010-01-01T02:07:54Z</time>
      </trkpt>
      <trkpt lat="44.18832" lon="4.24068">
        <ele>162</ele>
        <time>2010-01-01T02:08:02Z</time>
      </trkpt>
      <trkpt lat="44.18818" lon="4.24052">
        <ele>162</ele>
        <time>2010-01-01T02:08:09Z</time>
      </trkpt>
      <trkpt lat="44.18804" lon="4.24037">
        <ele>163</ele>
        <time>2010-01-01T02:08:16Z</time>
      </trkpt>
      <trkpt lat="44.18789" lon="4.24022">
        <ele>165</ele>
        <time>2010-01-01T02:08:23Z</time>
      </trkpt>
      <trkpt lat="44.18772" lon="4.24007">
        <ele>165</ele>
        <time>2010-01-01T02:08:31Z</time>
      </trkpt>
      <trkpt lat="44.18757" lon="4.23992">
        <ele>165</ele>
        <time>2010-01-01T02:08:38Z</time>
      </trkpt>
      <trkpt lat="44.18745" lon="4.23978">
        <ele>165</ele>
        <time>2010-01-01T02:08:45Z</time>
      </trkpt>
      <trkpt lat="44.18731" lon="4.23962">
        <ele>165</ele>
        <time>2010-01-01T02:08:52Z</time>
      </trkpt>
      <trkpt lat="44.1872" lon="4.23952">
        <ele>165</ele>
        <time>2010-01-01T02:08:58Z</time>
      </trkpt>
      <trkpt lat="44.18707" lon="4.23941">
        <ele>165</ele>
        <time>2010-01-01T02:09:03Z</time>
      </trkpt>
      <trkpt lat="44.18693" lon="4.2393">
        <ele>165</ele>
        <time>2010-01-01T02:09:10Z</time>
      </trkpt>
      <trkpt lat="44.18681" lon="4.23916">
        <ele>165</ele>
        <time>2010-01-01T02:09:16Z</time>
      </trkpt>
      <trkpt lat="44.18669" lon="4.23907">
        <ele>166</ele>
        <time>2010-01-01T02:09:22Z</time>
      </trkpt>
      <trkpt lat="44.18664" lon="4.23901">
        <ele>167</ele>
        <time>2010-01-01T02:09:24Z</time>
      </trkpt>
      <trkpt lat="44.18656" lon="4.23891">
        <ele>167</ele>
        <time>2010-01-01T02:09:28Z</time>
      </trkpt>
      <trkpt lat="44.18644" lon="4.23881">
        <ele>167</ele>
        <time>2010-01-01T02:09:34Z</time>
      </trkpt>
      <trkpt lat="44.18632" lon="4.23873">
        <ele>168</ele>
        <time>2010-01-01T02:09:40Z</time>
      </trkpt>
      <trkpt lat="44.18618" lon="4.23867">
        <ele>169</ele>
        <time>2010-01-01T02:09:45Z</time>
      </trkpt>
      <trkpt lat="44.18603" lon="4.23862">
        <ele>169</ele>
        <time>2010-01-01T02:09:52Z</time>
      </trkpt>
      <trkpt lat="44.18586" lon="4.2385">
        <ele>169</ele>
        <time>2010-01-01T02:09:59Z</time>
      </trkpt>
      <trkpt lat="44.18561" lon="4.23833">
        <ele>169</ele>
        <time>2010-01-01T02:10:10Z</time>
      </trkpt>
      <trkpt lat="44.18545" lon="4.23819">
        <ele>167</ele>
        <time>2010-01-01T02:10:18Z</time>
      </trkpt>
      <trkpt lat="44.18552" lon="4.23786">
        <ele>165</ele>
        <time>2010-01-01T02:10:28Z</time>
      </trkpt>
      <trkpt lat="44.1856" lon="4.23747">
        <ele>165</ele>
        <time>2010-01-01T02:10:40Z</time>
      </trkpt>
      <trkpt lat="44.18568" lon="4.23706">
        <ele>164</ele>
        <time>2010-01-01T02:10:52Z</time>
      </trkpt>
      <trkpt lat="44.18583" lon="4.2367">
        <ele>163</ele>
        <time>2010-01-01T02:11:04Z</time>
      </trkpt>
      <trkpt lat="44.18611" lon="4.23663">
        <ele>162</ele>
        <time>2010-01-01T02:11:15Z</time>
      </trkpt>
      <trkpt lat="44.18635" lon="4.23639">
        <ele>162</ele>
        <time>2010-01-01T02:11:27Z</time>
      </trkpt>
      <trkpt lat="44.18657" lon="4.2361">
        <ele>162</ele>
        <time>2010-01-01T02:11:39Z</time>
      </trkpt>
      <trkpt lat="44.1868" lon="4.2358">
        <ele>161</ele>
        <time>2010-01-01T02:11:52Z</time>
      </trkpt>
      <trkpt lat="44.187" lon="4.23556">
        <ele>161</ele>
        <time>2010-01-01T02:12:02Z</time>
      </trkpt>
      <trkpt lat="44.18699" lon="4.23538">
        <ele>160</ele>
        <time>2010-01-01T02:12:07Z</time>
      </trkpt>
      <trkpt lat="44.18685" lon="4.23524">
        <ele>160</ele>
        <time>2010-01-01T02:12:14Z</time>
      </trkpt>
      <trkpt lat="44.18678" lon="4.2351">
        <ele>160</ele>
        <time>2010-01-01T02:12:19Z</time>
      </trkpt>
      <trkpt lat="44.18689" lon="4.2349">
        <ele>160</ele>
        <time>2010-01-01T02:12:26Z</time>
      </trkpt>
      <trkpt lat="44.18702" lon="4.23464">
        <ele>160</ele>
        <time>2010-01-01T02:12:35Z</time>
      </trkpt>
      <trkpt lat="44.18717" lon="4.23435">
        <ele>160</ele>
        <time>2010-01-01T02:12:46Z</time>
      </trkpt>
      <trkpt lat="44.18734" lon="4.23404">
        <ele>160</ele>
        <time>2010-01-01T02:12:57Z</time>
      </trkpt>
      <trkpt lat="44.18753" lon="4.23375">
        <ele>160</ele>
        <time>2010-01-01T02:13:08Z</time>
      </trkpt>
      <trkpt lat="44.18771" lon="4.23345">
        <ele>159</ele>
        <time>2010-01-01T02:13:20Z</time>
      </trkpt>
      <trkpt lat="44.18788" lon="4.23316">
        <ele>159</ele>
        <time>2010-01-01T02:13:30Z</time>
      </trkpt>
      <trkpt lat="44.188" lon="4.23287">
        <ele>159</ele>
        <time>2010-01-01T02:13:40Z</time>
      </trkpt>
      <trkpt lat="44.1881" lon="4.23262">
        <ele>159</ele>
        <time>2010-01-01T02:13:48Z</time>
      </trkpt>
      <trkpt lat="44.18819" lon="4.23239">
        <ele>159</ele>
        <time>2010-01-01T02:13:56Z</time>
      </trkpt>
      <trkpt lat="44.18816" lon="4.23218">
        <ele>159</ele>
        <time>2010-01-01T02:14:02Z</time>
      </trkpt>
      <trkpt lat="44.18801" lon="4.23205">
        <ele>159</ele>
        <time>2010-01-01T02:14:09Z</time>
      </trkpt>
      <trkpt lat="44.18786" lon="4.23189">
        <ele>159</ele>
        <time>2010-01-01T02:14:16Z</time>
      </trkpt>
      <trkpt lat="44.1877" lon="4.23178">
        <ele>159</ele>
        <time>2010-01-01T02:14:24Z</time>
      </trkpt>
      <trkpt lat="44.18749" lon="4.2317">
        <ele>159</ele>
        <time>2010-01-01T02:14:32Z</time>
      </trkpt>
      <trkpt lat="44.18721" lon="4.23158">
        <ele>159</ele>
        <time>2010-01-01T02:14:44Z</time>
      </trkpt>
      <trkpt lat="44.18698" lon="4.23142">
        <ele>159</ele>
        <time>2010-01-01T02:14:54Z</time>
      </trkpt>
      <trkpt lat="44.18682" lon="4.23117">
        <ele>159</ele>
        <time>2010-01-01T02:15:04Z</time>
      </trkpt>
      <trkpt lat="44.18665" lon="4.23092">
        <ele>159</ele>
        <time>2010-01-01T02:15:14Z</time>
      </trkpt>
      <trkpt lat="44.18648" lon="4.23073">
        <ele>159</ele>
        <time>2010-01-01T02:15:23Z</time>
      </trkpt>
      <trkpt lat="44.18633" lon="4.23045">
        <ele>159</ele>
        <time>2010-01-01T02:15:33Z</time>
      </trkpt>
      <trkpt lat="44.1862" lon="4.23022">
        <ele>159</ele>
        <time>2010-01-01T02:15:41Z</time>
      </trkpt>
      <trkpt lat="44.18627" lon="4.23005">
        <ele>159</ele>
        <time>2010-01-01T02:15:46Z</time>
      </trkpt>
      <trkpt lat="44.18641" lon="4.2299">
        <ele>159</ele>
        <time>2010-01-01T02:15:53Z</time>
      </trkpt>
      <trkpt lat="44.18653" lon="4.22974">
        <ele>160</ele>
        <time>2010-01-01T02:16:00Z</time>
      </trkpt>
      <trkpt lat="44.18669" lon="4.22965">
        <ele>161</ele>
        <time>2010-01-01T02:16:07Z</time>
      </trkpt>
      <trkpt lat="44.18686" lon="4.22971">
        <ele>162</ele>
        <time>2010-01-01T02:16:14Z</time>
      </trkpt>
      <trkpt lat="44.18705" lon="4.22971">
        <ele>162</ele>
        <time>2010-01-01T02:16:22Z</time>
      </trkpt>
      <trkpt lat="44.1872" lon="4.22964">
        <ele>163</ele>
        <time>2010-01-01T02:16:28Z</time>
      </trkpt>
      <trkpt lat="44.18732" lon="4.22947">
        <ele>164</ele>
        <time>2010-01-01T02:16:35Z</time>
      </trkpt>
      <trkpt lat="44.18732" lon="4.22926">
        <ele>164</ele>
        <time>2010-01-01T02:16:41Z</time>
      </trkpt>
    </trkseg>
  </trk>
</gpx>